<?xml version="1.0" encoding="UTF-8" standalone="no" ?>
<gpx xmlns="http://www.topografix.com/GPX/1/1" xmlns:xsi="http://www.w3.org/2001/XMLSchema-instance" xsi:schemaLocation="http://www.topografix.com/GPX/1/1 http://www.topografix.com/GPX/1/1/gpx.xsd" version="1.1" creator="VisuGPX - https://www.visugpx.com">
  <metadata>
    <name>Tour de l'ile d'yeu 1</name>
    <desc><![CDATA[La moitié nord ouest du tour de l'ile d'Yeu .Partie sauvage avec de nombreux panoramas sur l'océan et la côte rocheuse.]]></desc>
  </metadata>
  <trk>
    <name><![CDATA[YEUJUIL-16 17:10:10]]></name>
    <trkseg>
      <trkpt lat="46.72245" lon="-2.34245">
        <ele>6.39</ele>
        <time>2016-07-08T07:20:10Z</time>
      </trkpt>
      <trkpt lat="46.72269" lon="-2.3426">
        <ele>6.87</ele>
        <time>2016-07-08T07:20:40Z</time>
      </trkpt>
      <trkpt lat="46.72302" lon="-2.34279">
        <ele>6.39</ele>
        <time>2016-07-08T07:21:10Z</time>
      </trkpt>
      <trkpt lat="46.72326" lon="-2.34306">
        <ele>6.39</ele>
        <time>2016-07-08T07:21:40Z</time>
      </trkpt>
      <trkpt lat="46.7235" lon="-2.34347">
        <ele>6.39</ele>
        <time>2016-07-08T07:22:10Z</time>
      </trkpt>
      <trkpt lat="46.72375" lon="-2.34381">
        <ele>6.39</ele>
        <time>2016-07-08T07:22:40Z</time>
      </trkpt>
      <trkpt lat="46.72396" lon="-2.3442">
        <ele>6.87</ele>
        <time>2016-07-08T07:23:10Z</time>
      </trkpt>
      <trkpt lat="46.72406" lon="-2.34467">
        <ele>6.87</ele>
        <time>2016-07-08T07:23:40Z</time>
      </trkpt>
      <trkpt lat="46.7241" lon="-2.34505">
        <ele>5.91</ele>
        <time>2016-07-08T07:24:10Z</time>
      </trkpt>
      <trkpt lat="46.72414" lon="-2.34531">
        <ele>5.42</ele>
        <time>2016-07-08T07:24:40Z</time>
      </trkpt>
      <trkpt lat="46.7242" lon="-2.34532">
        <ele>5.42</ele>
        <time>2016-07-08T07:25:10Z</time>
      </trkpt>
      <trkpt lat="46.72428" lon="-2.34538">
        <ele>5.42</ele>
        <time>2016-07-08T07:25:40Z</time>
      </trkpt>
      <trkpt lat="46.72438" lon="-2.3454">
        <ele>5.42</ele>
        <time>2016-07-08T07:26:10Z</time>
      </trkpt>
      <trkpt lat="46.72445" lon="-2.34539">
        <ele>5.42</ele>
        <time>2016-07-08T07:26:40Z</time>
      </trkpt>
      <trkpt lat="46.72444" lon="-2.34537">
        <ele>6.39</ele>
        <time>2016-07-08T07:27:10Z</time>
      </trkpt>
      <trkpt lat="46.72447" lon="-2.34544">
        <ele>5.91</ele>
        <time>2016-07-08T07:27:40Z</time>
      </trkpt>
      <trkpt lat="46.72446" lon="-2.34542">
        <ele>6.39</ele>
        <time>2016-07-08T07:28:10Z</time>
      </trkpt>
      <trkpt lat="46.72448" lon="-2.3454">
        <ele>6.87</ele>
        <time>2016-07-08T07:28:40Z</time>
      </trkpt>
      <trkpt lat="46.7245" lon="-2.34538">
        <ele>7.35</ele>
        <time>2016-07-08T07:29:10Z</time>
      </trkpt>
      <trkpt lat="46.7245" lon="-2.34542">
        <ele>7.35</ele>
        <time>2016-07-08T07:29:40Z</time>
      </trkpt>
      <trkpt lat="46.72444" lon="-2.34541">
        <ele>8.31</ele>
        <time>2016-07-08T07:30:10Z</time>
      </trkpt>
      <trkpt lat="46.72435" lon="-2.34536">
        <ele>8.31</ele>
        <time>2016-07-08T07:30:40Z</time>
      </trkpt>
      <trkpt lat="46.72433" lon="-2.34536">
        <ele>9.75</ele>
        <time>2016-07-08T07:31:10Z</time>
      </trkpt>
      <trkpt lat="46.7243" lon="-2.3454">
        <ele>9.75</ele>
        <time>2016-07-08T07:31:40Z</time>
      </trkpt>
      <trkpt lat="46.72438" lon="-2.34541">
        <ele>10.23</ele>
        <time>2016-07-08T07:32:10Z</time>
      </trkpt>
      <trkpt lat="46.72439" lon="-2.3457">
        <ele>10.23</ele>
        <time>2016-07-08T07:32:40Z</time>
      </trkpt>
      <trkpt lat="46.72457" lon="-2.34605">
        <ele>9.27</ele>
        <time>2016-07-08T07:33:10Z</time>
      </trkpt>
      <trkpt lat="46.72483" lon="-2.34626">
        <ele>9.27</ele>
        <time>2016-07-08T07:33:40Z</time>
      </trkpt>
      <trkpt lat="46.72488" lon="-2.34664">
        <ele>8.79</ele>
        <time>2016-07-08T07:34:10Z</time>
      </trkpt>
      <trkpt lat="46.72474" lon="-2.34707">
        <ele>9.27</ele>
        <time>2016-07-08T07:34:40Z</time>
      </trkpt>
      <trkpt lat="46.72454" lon="-2.34738">
        <ele>9.75</ele>
        <time>2016-07-08T07:35:10Z</time>
      </trkpt>
      <trkpt lat="46.72437" lon="-2.34788">
        <ele>9.27</ele>
        <time>2016-07-08T07:35:40Z</time>
      </trkpt>
      <trkpt lat="46.7246" lon="-2.34833">
        <ele>6.87</ele>
        <time>2016-07-08T07:36:10Z</time>
      </trkpt>
      <trkpt lat="46.72482" lon="-2.34866">
        <ele>6.87</ele>
        <time>2016-07-08T07:36:40Z</time>
      </trkpt>
      <trkpt lat="46.72505" lon="-2.34909">
        <ele>6.39</ele>
        <time>2016-07-08T07:37:10Z</time>
      </trkpt>
      <trkpt lat="46.72528" lon="-2.34941">
        <ele>5.91</ele>
        <time>2016-07-08T07:37:40Z</time>
      </trkpt>
      <trkpt lat="46.72558" lon="-2.34966">
        <ele>5.91</ele>
        <time>2016-07-08T07:38:10Z</time>
      </trkpt>
      <trkpt lat="46.72587" lon="-2.34981">
        <ele>6.39</ele>
        <time>2016-07-08T07:38:40Z</time>
      </trkpt>
      <trkpt lat="46.7262" lon="-2.34977">
        <ele>6.39</ele>
        <time>2016-07-08T07:39:10Z</time>
      </trkpt>
      <trkpt lat="46.72657" lon="-2.34973">
        <ele>5.91</ele>
        <time>2016-07-08T07:39:40Z</time>
      </trkpt>
      <trkpt lat="46.72694" lon="-2.3497">
        <ele>6.39</ele>
        <time>2016-07-08T07:40:10Z</time>
      </trkpt>
      <trkpt lat="46.72715" lon="-2.3499">
        <ele>6.87</ele>
        <time>2016-07-08T07:40:40Z</time>
      </trkpt>
      <trkpt lat="46.72718" lon="-2.34983">
        <ele>6.39</ele>
        <time>2016-07-08T07:41:10Z</time>
      </trkpt>
      <trkpt lat="46.72742" lon="-2.35016">
        <ele>7.35</ele>
        <time>2016-07-08T07:41:40Z</time>
      </trkpt>
      <trkpt lat="46.72747" lon="-2.35055">
        <ele>6.39</ele>
        <time>2016-07-08T07:42:10Z</time>
      </trkpt>
      <trkpt lat="46.72763" lon="-2.35106">
        <ele>7.35</ele>
        <time>2016-07-08T07:42:40Z</time>
      </trkpt>
      <trkpt lat="46.72773" lon="-2.35157">
        <ele>6.87</ele>
        <time>2016-07-08T07:43:10Z</time>
      </trkpt>
      <trkpt lat="46.72781" lon="-2.3521">
        <ele>7.35</ele>
        <time>2016-07-08T07:43:40Z</time>
      </trkpt>
      <trkpt lat="46.72764" lon="-2.35255">
        <ele>8.79</ele>
        <time>2016-07-08T07:44:10Z</time>
      </trkpt>
      <trkpt lat="46.72756" lon="-2.35304">
        <ele>7.83</ele>
        <time>2016-07-08T07:44:40Z</time>
      </trkpt>
      <trkpt lat="46.7275" lon="-2.35357">
        <ele>7.83</ele>
        <time>2016-07-08T07:45:10Z</time>
      </trkpt>
      <trkpt lat="46.72743" lon="-2.35412">
        <ele>5.91</ele>
        <time>2016-07-08T07:45:40Z</time>
      </trkpt>
      <trkpt lat="46.72734" lon="-2.35437">
        <ele>6.87</ele>
        <time>2016-07-08T07:46:10Z</time>
      </trkpt>
      <trkpt lat="46.72738" lon="-2.35458">
        <ele>5.91</ele>
        <time>2016-07-08T07:46:40Z</time>
      </trkpt>
      <trkpt lat="46.72765" lon="-2.35443">
        <ele>5.42</ele>
        <time>2016-07-08T07:47:10Z</time>
      </trkpt>
      <trkpt lat="46.72793" lon="-2.35461">
        <ele>6.87</ele>
        <time>2016-07-08T07:47:40Z</time>
      </trkpt>
      <trkpt lat="46.72806" lon="-2.35472">
        <ele>6.39</ele>
        <time>2016-07-08T07:48:10Z</time>
      </trkpt>
      <trkpt lat="46.72806" lon="-2.35472">
        <ele>5.91</ele>
        <time>2016-07-08T07:48:40Z</time>
      </trkpt>
      <trkpt lat="46.72805" lon="-2.35474">
        <ele>6.39</ele>
        <time>2016-07-08T07:49:10Z</time>
      </trkpt>
      <trkpt lat="46.72805" lon="-2.35472">
        <ele>6.39</ele>
        <time>2016-07-08T07:49:40Z</time>
      </trkpt>
      <trkpt lat="46.72805" lon="-2.35471">
        <ele>6.39</ele>
        <time>2016-07-08T07:50:10Z</time>
      </trkpt>
      <trkpt lat="46.72815" lon="-2.3549">
        <ele>6.39</ele>
        <time>2016-07-08T07:50:40Z</time>
      </trkpt>
      <trkpt lat="46.72834" lon="-2.35523">
        <ele>6.39</ele>
        <time>2016-07-08T07:51:10Z</time>
      </trkpt>
      <trkpt lat="46.72862" lon="-2.35561">
        <ele>5.91</ele>
        <time>2016-07-08T07:51:40Z</time>
      </trkpt>
      <trkpt lat="46.72878" lon="-2.35583">
        <ele>5.42</ele>
        <time>2016-07-08T07:52:10Z</time>
      </trkpt>
      <trkpt lat="46.72886" lon="-2.35595">
        <ele>5.42</ele>
        <time>2016-07-08T07:52:40Z</time>
      </trkpt>
      <trkpt lat="46.72907" lon="-2.35626">
        <ele>4.46</ele>
        <time>2016-07-08T07:53:10Z</time>
      </trkpt>
      <trkpt lat="46.72928" lon="-2.35657">
        <ele>5.42</ele>
        <time>2016-07-08T07:53:40Z</time>
      </trkpt>
      <trkpt lat="46.72934" lon="-2.3568">
        <ele>5.42</ele>
        <time>2016-07-08T07:54:10Z</time>
      </trkpt>
      <trkpt lat="46.72939" lon="-2.3572">
        <ele>4.94</ele>
        <time>2016-07-08T07:54:40Z</time>
      </trkpt>
      <trkpt lat="46.7295" lon="-2.35758">
        <ele>4.46</ele>
        <time>2016-07-08T07:55:10Z</time>
      </trkpt>
      <trkpt lat="46.72964" lon="-2.35805">
        <ele>5.42</ele>
        <time>2016-07-08T07:55:40Z</time>
      </trkpt>
      <trkpt lat="46.72975" lon="-2.3585">
        <ele>6.87</ele>
        <time>2016-07-08T07:56:10Z</time>
      </trkpt>
      <trkpt lat="46.72967" lon="-2.35899">
        <ele>6.39</ele>
        <time>2016-07-08T07:56:40Z</time>
      </trkpt>
      <trkpt lat="46.72958" lon="-2.35939">
        <ele>5.42</ele>
        <time>2016-07-08T07:57:10Z</time>
      </trkpt>
      <trkpt lat="46.72935" lon="-2.35972">
        <ele>5.91</ele>
        <time>2016-07-08T07:57:40Z</time>
      </trkpt>
      <trkpt lat="46.72909" lon="-2.36001">
        <ele>5.42</ele>
        <time>2016-07-08T07:58:10Z</time>
      </trkpt>
      <trkpt lat="46.72886" lon="-2.36034">
        <ele>4.94</ele>
        <time>2016-07-08T07:58:40Z</time>
      </trkpt>
      <trkpt lat="46.72899" lon="-2.36043">
        <ele>5.42</ele>
        <time>2016-07-08T07:59:10Z</time>
      </trkpt>
      <trkpt lat="46.72902" lon="-2.36051">
        <ele>5.91</ele>
        <time>2016-07-08T07:59:40Z</time>
      </trkpt>
      <trkpt lat="46.72903" lon="-2.36052">
        <ele>4.94</ele>
        <time>2016-07-08T08:00:10Z</time>
      </trkpt>
      <trkpt lat="46.72904" lon="-2.3608">
        <ele>5.42</ele>
        <time>2016-07-08T08:00:40Z</time>
      </trkpt>
      <trkpt lat="46.72896" lon="-2.36125">
        <ele>5.42</ele>
        <time>2016-07-08T08:01:10Z</time>
      </trkpt>
      <trkpt lat="46.72887" lon="-2.36172">
        <ele>6.87</ele>
        <time>2016-07-08T08:01:40Z</time>
      </trkpt>
      <trkpt lat="46.72883" lon="-2.3622">
        <ele>7.83</ele>
        <time>2016-07-08T08:02:10Z</time>
      </trkpt>
      <trkpt lat="46.72882" lon="-2.36269">
        <ele>8.79</ele>
        <time>2016-07-08T08:02:40Z</time>
      </trkpt>
      <trkpt lat="46.72872" lon="-2.36318">
        <ele>9.75</ele>
        <time>2016-07-08T08:03:10Z</time>
      </trkpt>
      <trkpt lat="46.72866" lon="-2.36371">
        <ele>10.23</ele>
        <time>2016-07-08T08:03:40Z</time>
      </trkpt>
      <trkpt lat="46.72861" lon="-2.36422">
        <ele>8.79</ele>
        <time>2016-07-08T08:04:10Z</time>
      </trkpt>
      <trkpt lat="46.72847" lon="-2.36469">
        <ele>7.35</ele>
        <time>2016-07-08T08:04:40Z</time>
      </trkpt>
      <trkpt lat="46.7283" lon="-2.36478">
        <ele>6.39</ele>
        <time>2016-07-08T08:05:10Z</time>
      </trkpt>
      <trkpt lat="46.72825" lon="-2.36481">
        <ele>7.35</ele>
        <time>2016-07-08T08:05:40Z</time>
      </trkpt>
      <trkpt lat="46.72791" lon="-2.36477">
        <ele>8.79</ele>
        <time>2016-07-08T08:06:10Z</time>
      </trkpt>
      <trkpt lat="46.72754" lon="-2.36483">
        <ele>9.75</ele>
        <time>2016-07-08T08:06:40Z</time>
      </trkpt>
      <trkpt lat="46.72717" lon="-2.36482">
        <ele>10.23</ele>
        <time>2016-07-08T08:07:10Z</time>
      </trkpt>
      <trkpt lat="46.72684" lon="-2.36476">
        <ele>8.79</ele>
        <time>2016-07-08T08:07:40Z</time>
      </trkpt>
      <trkpt lat="46.72652" lon="-2.3648">
        <ele>9.27</ele>
        <time>2016-07-08T08:08:10Z</time>
      </trkpt>
      <trkpt lat="46.7262" lon="-2.36501">
        <ele>8.79</ele>
        <time>2016-07-08T08:08:40Z</time>
      </trkpt>
      <trkpt lat="46.72626" lon="-2.36547">
        <ele>8.31</ele>
        <time>2016-07-08T08:09:10Z</time>
      </trkpt>
      <trkpt lat="46.72633" lon="-2.36594">
        <ele>10.23</ele>
        <time>2016-07-08T08:09:40Z</time>
      </trkpt>
      <trkpt lat="46.72636" lon="-2.3661">
        <ele>8.79</ele>
        <time>2016-07-08T08:10:10Z</time>
      </trkpt>
      <trkpt lat="46.72651" lon="-2.36659">
        <ele>10.23</ele>
        <time>2016-07-08T08:10:40Z</time>
      </trkpt>
      <trkpt lat="46.72672" lon="-2.367">
        <ele>11.67</ele>
        <time>2016-07-08T08:11:10Z</time>
      </trkpt>
      <trkpt lat="46.72695" lon="-2.36743">
        <ele>11.67</ele>
        <time>2016-07-08T08:11:40Z</time>
      </trkpt>
      <trkpt lat="46.72713" lon="-2.36789">
        <ele>12.63</ele>
        <time>2016-07-08T08:12:10Z</time>
      </trkpt>
      <trkpt lat="46.72726" lon="-2.36836">
        <ele>12.15</ele>
        <time>2016-07-08T08:12:40Z</time>
      </trkpt>
      <trkpt lat="46.72735" lon="-2.36871">
        <ele>11.19</ele>
        <time>2016-07-08T08:13:10Z</time>
      </trkpt>
      <trkpt lat="46.72736" lon="-2.36893">
        <ele>11.19</ele>
        <time>2016-07-08T08:13:40Z</time>
      </trkpt>
      <trkpt lat="46.72743" lon="-2.36946">
        <ele>11.19</ele>
        <time>2016-07-08T08:14:10Z</time>
      </trkpt>
      <trkpt lat="46.72752" lon="-2.36999">
        <ele>11.67</ele>
        <time>2016-07-08T08:14:40Z</time>
      </trkpt>
      <trkpt lat="46.72747" lon="-2.37052">
        <ele>11.67</ele>
        <time>2016-07-08T08:15:10Z</time>
      </trkpt>
      <trkpt lat="46.72759" lon="-2.37106">
        <ele>11.19</ele>
        <time>2016-07-08T08:15:40Z</time>
      </trkpt>
      <trkpt lat="46.72777" lon="-2.37152">
        <ele>10.71</ele>
        <time>2016-07-08T08:16:10Z</time>
      </trkpt>
      <trkpt lat="46.72799" lon="-2.37197">
        <ele>10.71</ele>
        <time>2016-07-08T08:16:40Z</time>
      </trkpt>
      <trkpt lat="46.72814" lon="-2.37242">
        <ele>11.19</ele>
        <time>2016-07-08T08:17:10Z</time>
      </trkpt>
      <trkpt lat="46.72816" lon="-2.37295">
        <ele>11.19</ele>
        <time>2016-07-08T08:17:40Z</time>
      </trkpt>
      <trkpt lat="46.72821" lon="-2.37348">
        <ele>11.19</ele>
        <time>2016-07-08T08:18:10Z</time>
      </trkpt>
      <trkpt lat="46.72825" lon="-2.37401">
        <ele>11.67</ele>
        <time>2016-07-08T08:18:40Z</time>
      </trkpt>
      <trkpt lat="46.72831" lon="-2.37451">
        <ele>11.19</ele>
        <time>2016-07-08T08:19:10Z</time>
      </trkpt>
      <trkpt lat="46.72834" lon="-2.37508">
        <ele>10.71</ele>
        <time>2016-07-08T08:19:40Z</time>
      </trkpt>
      <trkpt lat="46.72833" lon="-2.37548">
        <ele>11.67</ele>
        <time>2016-07-08T08:20:10Z</time>
      </trkpt>
      <trkpt lat="46.72846" lon="-2.37608">
        <ele>12.63</ele>
        <time>2016-07-08T08:20:40Z</time>
      </trkpt>
      <trkpt lat="46.7285" lon="-2.37661">
        <ele>12.63</ele>
        <time>2016-07-08T08:21:10Z</time>
      </trkpt>
      <trkpt lat="46.72869" lon="-2.37707">
        <ele>11.19</ele>
        <time>2016-07-08T08:21:40Z</time>
      </trkpt>
      <trkpt lat="46.72889" lon="-2.37753">
        <ele>9.27</ele>
        <time>2016-07-08T08:22:10Z</time>
      </trkpt>
      <trkpt lat="46.72908" lon="-2.37797">
        <ele>7.83</ele>
        <time>2016-07-08T08:22:40Z</time>
      </trkpt>
      <trkpt lat="46.72927" lon="-2.37843">
        <ele>6.87</ele>
        <time>2016-07-08T08:23:10Z</time>
      </trkpt>
      <trkpt lat="46.72946" lon="-2.37892">
        <ele>6.39</ele>
        <time>2016-07-08T08:23:40Z</time>
      </trkpt>
      <trkpt lat="46.72978" lon="-2.37913">
        <ele>6.39</ele>
        <time>2016-07-08T08:24:10Z</time>
      </trkpt>
      <trkpt lat="46.73009" lon="-2.37913">
        <ele>6.87</ele>
        <time>2016-07-08T08:24:40Z</time>
      </trkpt>
      <trkpt lat="46.73042" lon="-2.37922">
        <ele>5.91</ele>
        <time>2016-07-08T08:25:10Z</time>
      </trkpt>
      <trkpt lat="46.73052" lon="-2.37916">
        <ele>5.91</ele>
        <time>2016-07-08T08:25:40Z</time>
      </trkpt>
      <trkpt lat="46.73057" lon="-2.37922">
        <ele>5.91</ele>
        <time>2016-07-08T08:26:10Z</time>
      </trkpt>
      <trkpt lat="46.73059" lon="-2.3792">
        <ele>5.91</ele>
        <time>2016-07-08T08:26:40Z</time>
      </trkpt>
      <trkpt lat="46.73079" lon="-2.37922">
        <ele>5.42</ele>
        <time>2016-07-08T08:27:10Z</time>
      </trkpt>
      <trkpt lat="46.73103" lon="-2.37951">
        <ele>6.39</ele>
        <time>2016-07-08T08:27:40Z</time>
      </trkpt>
      <trkpt lat="46.73107" lon="-2.37954">
        <ele>5.91</ele>
        <time>2016-07-08T08:28:10Z</time>
      </trkpt>
      <trkpt lat="46.73103" lon="-2.37961">
        <ele>4.94</ele>
        <time>2016-07-08T08:28:40Z</time>
      </trkpt>
      <trkpt lat="46.73104" lon="-2.37962">
        <ele>5.42</ele>
        <time>2016-07-08T08:29:10Z</time>
      </trkpt>
      <trkpt lat="46.73107" lon="-2.37961">
        <ele>5.42</ele>
        <time>2016-07-08T08:29:40Z</time>
      </trkpt>
      <trkpt lat="46.7311" lon="-2.37967">
        <ele>6.87</ele>
        <time>2016-07-08T08:30:10Z</time>
      </trkpt>
      <trkpt lat="46.73132" lon="-2.38004">
        <ele>8.31</ele>
        <time>2016-07-08T08:30:40Z</time>
      </trkpt>
      <trkpt lat="46.73156" lon="-2.38003">
        <ele>7.35</ele>
        <time>2016-07-08T08:31:10Z</time>
      </trkpt>
      <trkpt lat="46.73162" lon="-2.37985">
        <ele>7.35</ele>
        <time>2016-07-08T08:31:40Z</time>
      </trkpt>
      <trkpt lat="46.73157" lon="-2.37986">
        <ele>6.87</ele>
        <time>2016-07-08T08:32:10Z</time>
      </trkpt>
      <trkpt lat="46.73154" lon="-2.37984">
        <ele>7.35</ele>
        <time>2016-07-08T08:32:40Z</time>
      </trkpt>
      <trkpt lat="46.73157" lon="-2.37987">
        <ele>7.35</ele>
        <time>2016-07-08T08:33:10Z</time>
      </trkpt>
      <trkpt lat="46.7316" lon="-2.37996">
        <ele>7.35</ele>
        <time>2016-07-08T08:33:40Z</time>
      </trkpt>
      <trkpt lat="46.73159" lon="-2.38003">
        <ele>7.83</ele>
        <time>2016-07-08T08:34:10Z</time>
      </trkpt>
      <trkpt lat="46.73156" lon="-2.38027">
        <ele>8.31</ele>
        <time>2016-07-08T08:34:40Z</time>
      </trkpt>
      <trkpt lat="46.73159" lon="-2.38039">
        <ele>7.35</ele>
        <time>2016-07-08T08:35:10Z</time>
      </trkpt>
      <trkpt lat="46.73159" lon="-2.38042">
        <ele>7.35</ele>
        <time>2016-07-08T08:35:40Z</time>
      </trkpt>
      <trkpt lat="46.7319" lon="-2.38069">
        <ele>6.87</ele>
        <time>2016-07-08T08:36:10Z</time>
      </trkpt>
      <trkpt lat="46.73216" lon="-2.38108">
        <ele>7.35</ele>
        <time>2016-07-08T08:36:40Z</time>
      </trkpt>
      <trkpt lat="46.73245" lon="-2.38144">
        <ele>5.42</ele>
        <time>2016-07-08T08:37:10Z</time>
      </trkpt>
      <trkpt lat="46.73272" lon="-2.3818">
        <ele>5.42</ele>
        <time>2016-07-08T08:37:40Z</time>
      </trkpt>
      <trkpt lat="46.73286" lon="-2.38229">
        <ele>5.91</ele>
        <time>2016-07-08T08:38:10Z</time>
      </trkpt>
      <trkpt lat="46.73286" lon="-2.38254">
        <ele>4.94</ele>
        <time>2016-07-08T08:38:40Z</time>
      </trkpt>
      <trkpt lat="46.73288" lon="-2.3826">
        <ele>5.91</ele>
        <time>2016-07-08T08:39:10Z</time>
      </trkpt>
      <trkpt lat="46.73291" lon="-2.38258">
        <ele>4.94</ele>
        <time>2016-07-08T08:39:40Z</time>
      </trkpt>
      <trkpt lat="46.7329" lon="-2.38258">
        <ele>3.02</ele>
        <time>2016-07-08T08:40:10Z</time>
      </trkpt>
      <trkpt lat="46.7329" lon="-2.38258">
        <ele>3.98</ele>
        <time>2016-07-08T08:40:40Z</time>
      </trkpt>
      <trkpt lat="46.73291" lon="-2.38258">
        <ele>3.98</ele>
        <time>2016-07-08T08:41:10Z</time>
      </trkpt>
      <trkpt lat="46.73291" lon="-2.38259">
        <ele>2.54</ele>
        <time>2016-07-08T08:41:40Z</time>
      </trkpt>
      <trkpt lat="46.7329" lon="-2.38259">
        <ele>3.02</ele>
        <time>2016-07-08T08:42:10Z</time>
      </trkpt>
      <trkpt lat="46.7329" lon="-2.38258">
        <ele>2.54</ele>
        <time>2016-07-08T08:42:40Z</time>
      </trkpt>
      <trkpt lat="46.7329" lon="-2.38259">
        <ele>2.54</ele>
        <time>2016-07-08T08:43:10Z</time>
      </trkpt>
      <trkpt lat="46.73291" lon="-2.38259">
        <ele>2.54</ele>
        <time>2016-07-08T08:43:40Z</time>
      </trkpt>
      <trkpt lat="46.73291" lon="-2.38258">
        <ele>3.5</ele>
        <time>2016-07-08T08:44:10Z</time>
      </trkpt>
      <trkpt lat="46.73291" lon="-2.38259">
        <ele>3.02</ele>
        <time>2016-07-08T08:44:40Z</time>
      </trkpt>
      <trkpt lat="46.73289" lon="-2.38259">
        <ele>3.5</ele>
        <time>2016-07-08T08:45:10Z</time>
      </trkpt>
      <trkpt lat="46.73291" lon="-2.38258">
        <ele>3.02</ele>
        <time>2016-07-08T08:45:40Z</time>
      </trkpt>
      <trkpt lat="46.73291" lon="-2.38257">
        <ele>3.5</ele>
        <time>2016-07-08T08:46:10Z</time>
      </trkpt>
      <trkpt lat="46.73292" lon="-2.38257">
        <ele>3.5</ele>
        <time>2016-07-08T08:46:40Z</time>
      </trkpt>
      <trkpt lat="46.73292" lon="-2.38257">
        <ele>5.42</ele>
        <time>2016-07-08T08:47:10Z</time>
      </trkpt>
      <trkpt lat="46.73265" lon="-2.38258">
        <ele>7.35</ele>
        <time>2016-07-08T08:47:40Z</time>
      </trkpt>
      <trkpt lat="46.73234" lon="-2.38275">
        <ele>8.31</ele>
        <time>2016-07-08T08:48:10Z</time>
      </trkpt>
      <trkpt lat="46.73204" lon="-2.38293">
        <ele>5.91</ele>
        <time>2016-07-08T08:48:40Z</time>
      </trkpt>
      <trkpt lat="46.73173" lon="-2.38315">
        <ele>6.39</ele>
        <time>2016-07-08T08:49:10Z</time>
      </trkpt>
      <trkpt lat="46.73148" lon="-2.38345">
        <ele>6.39</ele>
        <time>2016-07-08T08:49:40Z</time>
      </trkpt>
      <trkpt lat="46.7312" lon="-2.38361">
        <ele>6.39</ele>
        <time>2016-07-08T08:50:10Z</time>
      </trkpt>
      <trkpt lat="46.7311" lon="-2.38356">
        <ele>5.91</ele>
        <time>2016-07-08T08:50:40Z</time>
      </trkpt>
      <trkpt lat="46.73079" lon="-2.38349">
        <ele>6.87</ele>
        <time>2016-07-08T08:51:10Z</time>
      </trkpt>
      <trkpt lat="46.73047" lon="-2.3836">
        <ele>7.83</ele>
        <time>2016-07-08T08:51:40Z</time>
      </trkpt>
      <trkpt lat="46.73027" lon="-2.38404">
        <ele>7.83</ele>
        <time>2016-07-08T08:52:10Z</time>
      </trkpt>
      <trkpt lat="46.7301" lon="-2.38447">
        <ele>7.35</ele>
        <time>2016-07-08T08:52:40Z</time>
      </trkpt>
      <trkpt lat="46.72994" lon="-2.38489">
        <ele>7.83</ele>
        <time>2016-07-08T08:53:10Z</time>
      </trkpt>
      <trkpt lat="46.72997" lon="-2.38542">
        <ele>9.75</ele>
        <time>2016-07-08T08:53:40Z</time>
      </trkpt>
      <trkpt lat="46.72996" lon="-2.38592">
        <ele>8.31</ele>
        <time>2016-07-08T08:54:10Z</time>
      </trkpt>
      <trkpt lat="46.72984" lon="-2.38641">
        <ele>8.79</ele>
        <time>2016-07-08T08:54:40Z</time>
      </trkpt>
      <trkpt lat="46.72961" lon="-2.38673">
        <ele>9.27</ele>
        <time>2016-07-08T08:55:10Z</time>
      </trkpt>
      <trkpt lat="46.72937" lon="-2.3869">
        <ele>10.71</ele>
        <time>2016-07-08T08:55:40Z</time>
      </trkpt>
      <trkpt lat="46.72937" lon="-2.38693">
        <ele>10.71</ele>
        <time>2016-07-08T08:56:10Z</time>
      </trkpt>
      <trkpt lat="46.72935" lon="-2.38696">
        <ele>9.75</ele>
        <time>2016-07-08T08:56:40Z</time>
      </trkpt>
      <trkpt lat="46.72935" lon="-2.38694">
        <ele>10.71</ele>
        <time>2016-07-08T08:57:10Z</time>
      </trkpt>
      <trkpt lat="46.72913" lon="-2.38695">
        <ele>9.27</ele>
        <time>2016-07-08T08:57:40Z</time>
      </trkpt>
      <trkpt lat="46.72877" lon="-2.38679">
        <ele>7.35</ele>
        <time>2016-07-08T08:58:10Z</time>
      </trkpt>
      <trkpt lat="46.72845" lon="-2.38656">
        <ele>8.31</ele>
        <time>2016-07-08T08:58:40Z</time>
      </trkpt>
      <trkpt lat="46.72826" lon="-2.38662">
        <ele>7.83</ele>
        <time>2016-07-08T08:59:10Z</time>
      </trkpt>
      <trkpt lat="46.72826" lon="-2.3866">
        <ele>7.83</ele>
        <time>2016-07-08T08:59:40Z</time>
      </trkpt>
      <trkpt lat="46.72824" lon="-2.38658">
        <ele>7.83</ele>
        <time>2016-07-08T09:00:10Z</time>
      </trkpt>
      <trkpt lat="46.72797" lon="-2.3864">
        <ele>8.31</ele>
        <time>2016-07-08T09:00:40Z</time>
      </trkpt>
      <trkpt lat="46.72781" lon="-2.38656">
        <ele>5.91</ele>
        <time>2016-07-08T09:01:10Z</time>
      </trkpt>
      <trkpt lat="46.7278" lon="-2.38684">
        <ele>4.46</ele>
        <time>2016-07-08T09:01:40Z</time>
      </trkpt>
      <trkpt lat="46.72768" lon="-2.38706">
        <ele>3.98</ele>
        <time>2016-07-08T09:02:10Z</time>
      </trkpt>
      <trkpt lat="46.7277" lon="-2.38709">
        <ele>3.02</ele>
        <time>2016-07-08T09:02:40Z</time>
      </trkpt>
      <trkpt lat="46.72763" lon="-2.38714">
        <ele>3.98</ele>
        <time>2016-07-08T09:03:10Z</time>
      </trkpt>
      <trkpt lat="46.72765" lon="-2.38722">
        <ele>2.54</ele>
        <time>2016-07-08T09:03:40Z</time>
      </trkpt>
      <trkpt lat="46.72767" lon="-2.38722">
        <ele>2.06</ele>
        <time>2016-07-08T09:04:10Z</time>
      </trkpt>
      <trkpt lat="46.72755" lon="-2.38731">
        <ele>3.98</ele>
        <time>2016-07-08T09:04:40Z</time>
      </trkpt>
      <trkpt lat="46.72734" lon="-2.38753">
        <ele>4.46</ele>
        <time>2016-07-08T09:05:10Z</time>
      </trkpt>
      <trkpt lat="46.72713" lon="-2.38772">
        <ele>4.94</ele>
        <time>2016-07-08T09:05:40Z</time>
      </trkpt>
      <trkpt lat="46.72706" lon="-2.38796">
        <ele>8.79</ele>
        <time>2016-07-08T09:06:10Z</time>
      </trkpt>
      <trkpt lat="46.727" lon="-2.38833">
        <ele>10.23</ele>
        <time>2016-07-08T09:06:40Z</time>
      </trkpt>
      <trkpt lat="46.72716" lon="-2.38873">
        <ele>10.71</ele>
        <time>2016-07-08T09:07:10Z</time>
      </trkpt>
      <trkpt lat="46.72713" lon="-2.3891">
        <ele>11.19</ele>
        <time>2016-07-08T09:07:40Z</time>
      </trkpt>
      <trkpt lat="46.72728" lon="-2.38941">
        <ele>10.23</ele>
        <time>2016-07-08T09:08:10Z</time>
      </trkpt>
      <trkpt lat="46.72725" lon="-2.3895">
        <ele>11.19</ele>
        <time>2016-07-08T09:08:40Z</time>
      </trkpt>
      <trkpt lat="46.72729" lon="-2.38955">
        <ele>9.75</ele>
        <time>2016-07-08T09:09:10Z</time>
      </trkpt>
      <trkpt lat="46.72721" lon="-2.38973">
        <ele>9.27</ele>
        <time>2016-07-08T09:09:40Z</time>
      </trkpt>
      <trkpt lat="46.72724" lon="-2.38977">
        <ele>7.35</ele>
        <time>2016-07-08T09:10:10Z</time>
      </trkpt>
      <trkpt lat="46.72715" lon="-2.39017">
        <ele>8.79</ele>
        <time>2016-07-08T09:10:40Z</time>
      </trkpt>
      <trkpt lat="46.72708" lon="-2.39063">
        <ele>8.79</ele>
        <time>2016-07-08T09:11:10Z</time>
      </trkpt>
      <trkpt lat="46.72697" lon="-2.3911">
        <ele>8.79</ele>
        <time>2016-07-08T09:11:40Z</time>
      </trkpt>
      <trkpt lat="46.72692" lon="-2.39164">
        <ele>8.79</ele>
        <time>2016-07-08T09:12:10Z</time>
      </trkpt>
      <trkpt lat="46.72683" lon="-2.39215">
        <ele>8.79</ele>
        <time>2016-07-08T09:12:40Z</time>
      </trkpt>
      <trkpt lat="46.72667" lon="-2.39262">
        <ele>10.23</ele>
        <time>2016-07-08T09:13:10Z</time>
      </trkpt>
      <trkpt lat="46.72659" lon="-2.39304">
        <ele>11.19</ele>
        <time>2016-07-08T09:13:40Z</time>
      </trkpt>
      <trkpt lat="46.72644" lon="-2.39331">
        <ele>11.19</ele>
        <time>2016-07-08T09:14:10Z</time>
      </trkpt>
      <trkpt lat="46.72628" lon="-2.39378">
        <ele>11.67</ele>
        <time>2016-07-08T09:14:40Z</time>
      </trkpt>
      <trkpt lat="46.72615" lon="-2.39424">
        <ele>10.23</ele>
        <time>2016-07-08T09:15:10Z</time>
      </trkpt>
      <trkpt lat="46.72606" lon="-2.39475">
        <ele>9.75</ele>
        <time>2016-07-08T09:15:40Z</time>
      </trkpt>
      <trkpt lat="46.72589" lon="-2.39517">
        <ele>10.23</ele>
        <time>2016-07-08T09:16:10Z</time>
      </trkpt>
      <trkpt lat="46.72576" lon="-2.39551">
        <ele>8.79</ele>
        <time>2016-07-08T09:16:40Z</time>
      </trkpt>
      <trkpt lat="46.72559" lon="-2.39583">
        <ele>9.27</ele>
        <time>2016-07-08T09:17:10Z</time>
      </trkpt>
      <trkpt lat="46.72549" lon="-2.39614">
        <ele>7.83</ele>
        <time>2016-07-08T09:17:40Z</time>
      </trkpt>
      <trkpt lat="46.72545" lon="-2.39632">
        <ele>6.87</ele>
        <time>2016-07-08T09:18:10Z</time>
      </trkpt>
      <trkpt lat="46.72536" lon="-2.39649">
        <ele>8.79</ele>
        <time>2016-07-08T09:18:40Z</time>
      </trkpt>
      <trkpt lat="46.72541" lon="-2.39692">
        <ele>9.27</ele>
        <time>2016-07-08T09:19:10Z</time>
      </trkpt>
      <trkpt lat="46.72552" lon="-2.39731">
        <ele>7.83</ele>
        <time>2016-07-08T09:19:40Z</time>
      </trkpt>
      <trkpt lat="46.72559" lon="-2.39767">
        <ele>8.79</ele>
        <time>2016-07-08T09:20:10Z</time>
      </trkpt>
      <trkpt lat="46.72569" lon="-2.39813">
        <ele>8.31</ele>
        <time>2016-07-08T09:20:40Z</time>
      </trkpt>
      <trkpt lat="46.72579" lon="-2.39851">
        <ele>9.27</ele>
        <time>2016-07-08T09:21:10Z</time>
      </trkpt>
      <trkpt lat="46.72583" lon="-2.39851">
        <ele>8.31</ele>
        <time>2016-07-08T09:21:40Z</time>
      </trkpt>
      <trkpt lat="46.72576" lon="-2.39888">
        <ele>10.23</ele>
        <time>2016-07-08T09:22:10Z</time>
      </trkpt>
      <trkpt lat="46.72567" lon="-2.399">
        <ele>8.31</ele>
        <time>2016-07-08T09:22:40Z</time>
      </trkpt>
      <trkpt lat="46.72568" lon="-2.39901">
        <ele>8.79</ele>
        <time>2016-07-08T09:23:10Z</time>
      </trkpt>
      <trkpt lat="46.72567" lon="-2.39902">
        <ele>8.31</ele>
        <time>2016-07-08T09:23:40Z</time>
      </trkpt>
      <trkpt lat="46.7257" lon="-2.39902">
        <ele>9.27</ele>
        <time>2016-07-08T09:24:10Z</time>
      </trkpt>
      <trkpt lat="46.72569" lon="-2.399">
        <ele>8.79</ele>
        <time>2016-07-08T09:24:40Z</time>
      </trkpt>
      <trkpt lat="46.72568" lon="-2.399">
        <ele>9.27</ele>
        <time>2016-07-08T09:25:10Z</time>
      </trkpt>
      <trkpt lat="46.72569" lon="-2.399">
        <ele>9.27</ele>
        <time>2016-07-08T09:25:40Z</time>
      </trkpt>
      <trkpt lat="46.72568" lon="-2.39899">
        <ele>9.27</ele>
        <time>2016-07-08T09:26:10Z</time>
      </trkpt>
      <trkpt lat="46.72567" lon="-2.39901">
        <ele>8.31</ele>
        <time>2016-07-08T09:26:40Z</time>
      </trkpt>
      <trkpt lat="46.72568" lon="-2.39901">
        <ele>9.75</ele>
        <time>2016-07-08T09:27:10Z</time>
      </trkpt>
      <trkpt lat="46.72562" lon="-2.3993">
        <ele>10.23</ele>
        <time>2016-07-08T09:27:40Z</time>
      </trkpt>
      <trkpt lat="46.72568" lon="-2.39945">
        <ele>10.23</ele>
        <time>2016-07-08T09:28:10Z</time>
      </trkpt>
      <trkpt lat="46.72556" lon="-2.3996">
        <ele>10.23</ele>
        <time>2016-07-08T09:28:40Z</time>
      </trkpt>
      <trkpt lat="46.72551" lon="-2.39969">
        <ele>8.79</ele>
        <time>2016-07-08T09:29:10Z</time>
      </trkpt>
      <trkpt lat="46.72549" lon="-2.39969">
        <ele>8.31</ele>
        <time>2016-07-08T09:29:40Z</time>
      </trkpt>
      <trkpt lat="46.72549" lon="-2.39969">
        <ele>8.79</ele>
        <time>2016-07-08T09:30:10Z</time>
      </trkpt>
      <trkpt lat="46.72549" lon="-2.3997">
        <ele>8.31</ele>
        <time>2016-07-08T09:30:40Z</time>
      </trkpt>
      <trkpt lat="46.72549" lon="-2.39969">
        <ele>8.31</ele>
        <time>2016-07-08T09:31:10Z</time>
      </trkpt>
      <trkpt lat="46.72549" lon="-2.3997">
        <ele>9.27</ele>
        <time>2016-07-08T09:31:40Z</time>
      </trkpt>
      <trkpt lat="46.72549" lon="-2.39969">
        <ele>9.27</ele>
        <time>2016-07-08T09:32:10Z</time>
      </trkpt>
      <trkpt lat="46.72549" lon="-2.3997">
        <ele>8.79</ele>
        <time>2016-07-08T09:32:40Z</time>
      </trkpt>
      <trkpt lat="46.72549" lon="-2.39968">
        <ele>8.79</ele>
        <time>2016-07-08T09:33:10Z</time>
      </trkpt>
      <trkpt lat="46.7255" lon="-2.39969">
        <ele>8.31</ele>
        <time>2016-07-08T09:33:40Z</time>
      </trkpt>
      <trkpt lat="46.7255" lon="-2.3997">
        <ele>8.79</ele>
        <time>2016-07-08T09:34:10Z</time>
      </trkpt>
      <trkpt lat="46.72549" lon="-2.39969">
        <ele>8.31</ele>
        <time>2016-07-08T09:34:40Z</time>
      </trkpt>
      <trkpt lat="46.72549" lon="-2.3997">
        <ele>8.31</ele>
        <time>2016-07-08T09:35:10Z</time>
      </trkpt>
      <trkpt lat="46.72549" lon="-2.39968">
        <ele>9.75</ele>
        <time>2016-07-08T09:35:40Z</time>
      </trkpt>
      <trkpt lat="46.72534" lon="-2.39953">
        <ele>10.23</ele>
        <time>2016-07-08T09:36:10Z</time>
      </trkpt>
      <trkpt lat="46.72535" lon="-2.39953">
        <ele>10.71</ele>
        <time>2016-07-08T09:36:40Z</time>
      </trkpt>
      <trkpt lat="46.72516" lon="-2.39942">
        <ele>11.67</ele>
        <time>2016-07-08T09:37:10Z</time>
      </trkpt>
      <trkpt lat="46.72501" lon="-2.39927">
        <ele>12.15</ele>
        <time>2016-07-08T09:37:40Z</time>
      </trkpt>
      <trkpt lat="46.72481" lon="-2.39882">
        <ele>11.19</ele>
        <time>2016-07-08T09:38:10Z</time>
      </trkpt>
      <trkpt lat="46.72447" lon="-2.39851">
        <ele>10.71</ele>
        <time>2016-07-08T09:38:40Z</time>
      </trkpt>
      <trkpt lat="46.72412" lon="-2.39856">
        <ele>11.67</ele>
        <time>2016-07-08T09:39:10Z</time>
      </trkpt>
      <trkpt lat="46.724" lon="-2.39844">
        <ele>10.71</ele>
        <time>2016-07-08T09:39:40Z</time>
      </trkpt>
      <trkpt lat="46.72366" lon="-2.39821">
        <ele>10.71</ele>
        <time>2016-07-08T09:40:10Z</time>
      </trkpt>
      <trkpt lat="46.72333" lon="-2.39803">
        <ele>10.71</ele>
        <time>2016-07-08T09:40:40Z</time>
      </trkpt>
      <trkpt lat="46.72305" lon="-2.39783">
        <ele>10.71</ele>
        <time>2016-07-08T09:41:10Z</time>
      </trkpt>
      <trkpt lat="46.72276" lon="-2.39793">
        <ele>12.15</ele>
        <time>2016-07-08T09:41:40Z</time>
      </trkpt>
      <trkpt lat="46.72268" lon="-2.39806">
        <ele>12.15</ele>
        <time>2016-07-08T09:42:10Z</time>
      </trkpt>
      <trkpt lat="46.72244" lon="-2.39843">
        <ele>12.63</ele>
        <time>2016-07-08T09:42:40Z</time>
      </trkpt>
      <trkpt lat="46.7221" lon="-2.39865">
        <ele>14.08</ele>
        <time>2016-07-08T09:43:10Z</time>
      </trkpt>
      <trkpt lat="46.72178" lon="-2.39862">
        <ele>13.12</ele>
        <time>2016-07-08T09:43:40Z</time>
      </trkpt>
      <trkpt lat="46.72151" lon="-2.39846">
        <ele>14.08</ele>
        <time>2016-07-08T09:44:10Z</time>
      </trkpt>
      <trkpt lat="46.72136" lon="-2.3982">
        <ele>13.6</ele>
        <time>2016-07-08T09:44:40Z</time>
      </trkpt>
      <trkpt lat="46.72109" lon="-2.39784">
        <ele>15.04</ele>
        <time>2016-07-08T09:45:10Z</time>
      </trkpt>
      <trkpt lat="46.72077" lon="-2.39765">
        <ele>16</ele>
        <time>2016-07-08T09:45:40Z</time>
      </trkpt>
      <trkpt lat="46.72047" lon="-2.39755">
        <ele>15.52</ele>
        <time>2016-07-08T09:46:10Z</time>
      </trkpt>
      <trkpt lat="46.72032" lon="-2.39753">
        <ele>16.48</ele>
        <time>2016-07-08T09:46:40Z</time>
      </trkpt>
      <trkpt lat="46.71995" lon="-2.39756">
        <ele>16</ele>
        <time>2016-07-08T09:47:10Z</time>
      </trkpt>
      <trkpt lat="46.71968" lon="-2.39771">
        <ele>16.48</ele>
        <time>2016-07-08T09:47:40Z</time>
      </trkpt>
      <trkpt lat="46.71934" lon="-2.39773">
        <ele>16.96</ele>
        <time>2016-07-08T09:48:10Z</time>
      </trkpt>
      <trkpt lat="46.71904" lon="-2.39749">
        <ele>16.96</ele>
        <time>2016-07-08T09:48:40Z</time>
      </trkpt>
      <trkpt lat="46.71873" lon="-2.39722">
        <ele>19.36</ele>
        <time>2016-07-08T09:49:10Z</time>
      </trkpt>
      <trkpt lat="46.71837" lon="-2.39724">
        <ele>18.4</ele>
        <time>2016-07-08T09:49:40Z</time>
      </trkpt>
      <trkpt lat="46.71802" lon="-2.39733">
        <ele>18.4</ele>
        <time>2016-07-08T09:50:10Z</time>
      </trkpt>
      <trkpt lat="46.71764" lon="-2.39731">
        <ele>16.96</ele>
        <time>2016-07-08T09:50:40Z</time>
      </trkpt>
      <trkpt lat="46.71728" lon="-2.39747">
        <ele>16.96</ele>
        <time>2016-07-08T09:51:10Z</time>
      </trkpt>
      <trkpt lat="46.71694" lon="-2.39737">
        <ele>16</ele>
        <time>2016-07-08T09:51:40Z</time>
      </trkpt>
      <trkpt lat="46.71667" lon="-2.39722">
        <ele>16</ele>
        <time>2016-07-08T09:52:10Z</time>
      </trkpt>
      <trkpt lat="46.71648" lon="-2.39684">
        <ele>15.04</ele>
        <time>2016-07-08T09:52:40Z</time>
      </trkpt>
      <trkpt lat="46.71642" lon="-2.39634">
        <ele>16</ele>
        <time>2016-07-08T09:53:10Z</time>
      </trkpt>
      <trkpt lat="46.71644" lon="-2.39588">
        <ele>17.44</ele>
        <time>2016-07-08T09:53:40Z</time>
      </trkpt>
      <trkpt lat="46.71612" lon="-2.39568">
        <ele>17.92</ele>
        <time>2016-07-08T09:54:10Z</time>
      </trkpt>
      <trkpt lat="46.71577" lon="-2.39574">
        <ele>16.48</ele>
        <time>2016-07-08T09:54:40Z</time>
      </trkpt>
      <trkpt lat="46.71542" lon="-2.39569">
        <ele>15.52</ele>
        <time>2016-07-08T09:55:10Z</time>
      </trkpt>
      <trkpt lat="46.71511" lon="-2.39544">
        <ele>16.48</ele>
        <time>2016-07-08T09:55:40Z</time>
      </trkpt>
      <trkpt lat="46.71489" lon="-2.39502">
        <ele>15.52</ele>
        <time>2016-07-08T09:56:10Z</time>
      </trkpt>
      <trkpt lat="46.7146" lon="-2.39472">
        <ele>15.04</ele>
        <time>2016-07-08T09:56:40Z</time>
      </trkpt>
      <trkpt lat="46.71431" lon="-2.39444">
        <ele>16.96</ele>
        <time>2016-07-08T09:57:10Z</time>
      </trkpt>
      <trkpt lat="46.714" lon="-2.39426">
        <ele>13.6</ele>
        <time>2016-07-08T09:57:40Z</time>
      </trkpt>
      <trkpt lat="46.71386" lon="-2.39414">
        <ele>15.04</ele>
        <time>2016-07-08T09:58:10Z</time>
      </trkpt>
      <trkpt lat="46.71357" lon="-2.39378">
        <ele>13.6</ele>
        <time>2016-07-08T09:58:40Z</time>
      </trkpt>
      <trkpt lat="46.71334" lon="-2.39338">
        <ele>12.63</ele>
        <time>2016-07-08T09:59:10Z</time>
      </trkpt>
      <trkpt lat="46.71316" lon="-2.39312">
        <ele>13.6</ele>
        <time>2016-07-08T09:59:40Z</time>
      </trkpt>
      <trkpt lat="46.71282" lon="-2.39299">
        <ele>14.56</ele>
        <time>2016-07-08T10:00:10Z</time>
      </trkpt>
      <trkpt lat="46.71249" lon="-2.3928">
        <ele>15.52</ele>
        <time>2016-07-08T10:00:40Z</time>
      </trkpt>
      <trkpt lat="46.71221" lon="-2.39253">
        <ele>16</ele>
        <time>2016-07-08T10:01:10Z</time>
      </trkpt>
      <trkpt lat="46.71188" lon="-2.39238">
        <ele>17.44</ele>
        <time>2016-07-08T10:01:40Z</time>
      </trkpt>
      <trkpt lat="46.71155" lon="-2.39225">
        <ele>18.88</ele>
        <time>2016-07-08T10:02:10Z</time>
      </trkpt>
      <trkpt lat="46.71123" lon="-2.39203">
        <ele>20.32</ele>
        <time>2016-07-08T10:02:40Z</time>
      </trkpt>
      <trkpt lat="46.71089" lon="-2.39187">
        <ele>19.36</ele>
        <time>2016-07-08T10:03:10Z</time>
      </trkpt>
      <trkpt lat="46.71057" lon="-2.39195">
        <ele>18.88</ele>
        <time>2016-07-08T10:03:40Z</time>
      </trkpt>
      <trkpt lat="46.71023" lon="-2.39214">
        <ele>20.32</ele>
        <time>2016-07-08T10:04:10Z</time>
      </trkpt>
      <trkpt lat="46.71011" lon="-2.39249">
        <ele>16</ele>
        <time>2016-07-08T10:04:40Z</time>
      </trkpt>
      <trkpt lat="46.71016" lon="-2.39263">
        <ele>15.52</ele>
        <time>2016-07-08T10:05:10Z</time>
      </trkpt>
      <trkpt lat="46.70999" lon="-2.39279">
        <ele>14.56</ele>
        <time>2016-07-08T10:05:40Z</time>
      </trkpt>
      <trkpt lat="46.70995" lon="-2.39269">
        <ele>13.6</ele>
        <time>2016-07-08T10:06:10Z</time>
      </trkpt>
      <trkpt lat="46.71019" lon="-2.39243">
        <ele>18.4</ele>
        <time>2016-07-08T10:06:40Z</time>
      </trkpt>
      <trkpt lat="46.7102" lon="-2.39238">
        <ele>18.4</ele>
        <time>2016-07-08T10:07:10Z</time>
      </trkpt>
      <trkpt lat="46.7102" lon="-2.39236">
        <ele>18.4</ele>
        <time>2016-07-08T10:07:40Z</time>
      </trkpt>
      <trkpt lat="46.71022" lon="-2.39235">
        <ele>18.88</ele>
        <time>2016-07-08T10:08:10Z</time>
      </trkpt>
      <trkpt lat="46.71022" lon="-2.39235">
        <ele>17.92</ele>
        <time>2016-07-08T10:08:40Z</time>
      </trkpt>
      <trkpt lat="46.71021" lon="-2.39235">
        <ele>17.92</ele>
        <time>2016-07-08T10:09:10Z</time>
      </trkpt>
      <trkpt lat="46.71022" lon="-2.39236">
        <ele>17.44</ele>
        <time>2016-07-08T10:09:40Z</time>
      </trkpt>
      <trkpt lat="46.71021" lon="-2.39236">
        <ele>17.92</ele>
        <time>2016-07-08T10:10:10Z</time>
      </trkpt>
      <trkpt lat="46.71021" lon="-2.39236">
        <ele>17.92</ele>
        <time>2016-07-08T10:10:40Z</time>
      </trkpt>
      <trkpt lat="46.71021" lon="-2.39236">
        <ele>17.44</ele>
        <time>2016-07-08T10:11:10Z</time>
      </trkpt>
      <trkpt lat="46.71021" lon="-2.39235">
        <ele>16.96</ele>
        <time>2016-07-08T10:11:40Z</time>
      </trkpt>
      <trkpt lat="46.71021" lon="-2.39236">
        <ele>17.92</ele>
        <time>2016-07-08T10:12:10Z</time>
      </trkpt>
      <trkpt lat="46.71021" lon="-2.39236">
        <ele>17.44</ele>
        <time>2016-07-08T10:12:40Z</time>
      </trkpt>
      <trkpt lat="46.71022" lon="-2.39235">
        <ele>17.44</ele>
        <time>2016-07-08T10:13:10Z</time>
      </trkpt>
      <trkpt lat="46.71021" lon="-2.39235">
        <ele>17.44</ele>
        <time>2016-07-08T10:13:40Z</time>
      </trkpt>
      <trkpt lat="46.71021" lon="-2.39236">
        <ele>17.92</ele>
        <time>2016-07-08T10:14:10Z</time>
      </trkpt>
      <trkpt lat="46.71021" lon="-2.39235">
        <ele>17.44</ele>
        <time>2016-07-08T10:14:40Z</time>
      </trkpt>
      <trkpt lat="46.71022" lon="-2.39236">
        <ele>17.92</ele>
        <time>2016-07-08T10:15:10Z</time>
      </trkpt>
      <trkpt lat="46.71021" lon="-2.39235">
        <ele>17.92</ele>
        <time>2016-07-08T10:15:40Z</time>
      </trkpt>
      <trkpt lat="46.71021" lon="-2.39235">
        <ele>17.44</ele>
        <time>2016-07-08T10:16:10Z</time>
      </trkpt>
      <trkpt lat="46.71021" lon="-2.39236">
        <ele>17.92</ele>
        <time>2016-07-08T10:16:40Z</time>
      </trkpt>
      <trkpt lat="46.7102" lon="-2.39236">
        <ele>17.92</ele>
        <time>2016-07-08T10:17:10Z</time>
      </trkpt>
      <trkpt lat="46.71021" lon="-2.39236">
        <ele>17.44</ele>
        <time>2016-07-08T10:17:40Z</time>
      </trkpt>
      <trkpt lat="46.71021" lon="-2.39236">
        <ele>17.44</ele>
        <time>2016-07-08T10:18:10Z</time>
      </trkpt>
      <trkpt lat="46.71021" lon="-2.39236">
        <ele>17.92</ele>
        <time>2016-07-08T10:18:40Z</time>
      </trkpt>
      <trkpt lat="46.71021" lon="-2.39235">
        <ele>17.44</ele>
        <time>2016-07-08T10:19:10Z</time>
      </trkpt>
      <trkpt lat="46.71021" lon="-2.39235">
        <ele>17.92</ele>
        <time>2016-07-08T10:19:40Z</time>
      </trkpt>
      <trkpt lat="46.71021" lon="-2.39235">
        <ele>18.4</ele>
        <time>2016-07-08T10:20:10Z</time>
      </trkpt>
      <trkpt lat="46.71021" lon="-2.39235">
        <ele>17.92</ele>
        <time>2016-07-08T10:20:40Z</time>
      </trkpt>
      <trkpt lat="46.71021" lon="-2.39234">
        <ele>17.92</ele>
        <time>2016-07-08T10:21:10Z</time>
      </trkpt>
      <trkpt lat="46.7102" lon="-2.39235">
        <ele>18.88</ele>
        <time>2016-07-08T10:21:40Z</time>
      </trkpt>
      <trkpt lat="46.7102" lon="-2.39235">
        <ele>18.88</ele>
        <time>2016-07-08T10:22:10Z</time>
      </trkpt>
      <trkpt lat="46.7102" lon="-2.39235">
        <ele>18.88</ele>
        <time>2016-07-08T10:22:40Z</time>
      </trkpt>
      <trkpt lat="46.7102" lon="-2.39235">
        <ele>18.88</ele>
        <time>2016-07-08T10:23:10Z</time>
      </trkpt>
      <trkpt lat="46.7102" lon="-2.39235">
        <ele>18.88</ele>
        <time>2016-07-08T10:23:40Z</time>
      </trkpt>
      <trkpt lat="46.7102" lon="-2.39235">
        <ele>18.88</ele>
        <time>2016-07-08T10:24:10Z</time>
      </trkpt>
      <trkpt lat="46.7102" lon="-2.39234">
        <ele>19.36</ele>
        <time>2016-07-08T10:24:40Z</time>
      </trkpt>
      <trkpt lat="46.71019" lon="-2.39235">
        <ele>19.36</ele>
        <time>2016-07-08T10:25:10Z</time>
      </trkpt>
      <trkpt lat="46.7102" lon="-2.39234">
        <ele>19.36</ele>
        <time>2016-07-08T10:25:40Z</time>
      </trkpt>
      <trkpt lat="46.71019" lon="-2.39235">
        <ele>19.84</ele>
        <time>2016-07-08T10:26:10Z</time>
      </trkpt>
      <trkpt lat="46.7102" lon="-2.39235">
        <ele>19.84</ele>
        <time>2016-07-08T10:26:40Z</time>
      </trkpt>
      <trkpt lat="46.7102" lon="-2.39234">
        <ele>20.32</ele>
        <time>2016-07-08T10:27:10Z</time>
      </trkpt>
      <trkpt lat="46.7102" lon="-2.39235">
        <ele>19.84</ele>
        <time>2016-07-08T10:27:40Z</time>
      </trkpt>
      <trkpt lat="46.7102" lon="-2.39234">
        <ele>19.84</ele>
        <time>2016-07-08T10:28:10Z</time>
      </trkpt>
      <trkpt lat="46.71022" lon="-2.39234">
        <ele>20.32</ele>
        <time>2016-07-08T10:28:40Z</time>
      </trkpt>
      <trkpt lat="46.71021" lon="-2.39235">
        <ele>19.84</ele>
        <time>2016-07-08T10:29:10Z</time>
      </trkpt>
      <trkpt lat="46.71022" lon="-2.39235">
        <ele>19.84</ele>
        <time>2016-07-08T10:29:40Z</time>
      </trkpt>
      <trkpt lat="46.71021" lon="-2.39235">
        <ele>19.36</ele>
        <time>2016-07-08T10:30:10Z</time>
      </trkpt>
      <trkpt lat="46.71021" lon="-2.39235">
        <ele>19.84</ele>
        <time>2016-07-08T10:30:40Z</time>
      </trkpt>
      <trkpt lat="46.71021" lon="-2.39235">
        <ele>19.84</ele>
        <time>2016-07-08T10:31:10Z</time>
      </trkpt>
      <trkpt lat="46.71021" lon="-2.39236">
        <ele>19.84</ele>
        <time>2016-07-08T10:31:40Z</time>
      </trkpt>
      <trkpt lat="46.71021" lon="-2.39235">
        <ele>19.84</ele>
        <time>2016-07-08T10:32:10Z</time>
      </trkpt>
      <trkpt lat="46.71021" lon="-2.39236">
        <ele>19.84</ele>
        <time>2016-07-08T10:32:40Z</time>
      </trkpt>
      <trkpt lat="46.71021" lon="-2.39236">
        <ele>19.84</ele>
        <time>2016-07-08T10:33:10Z</time>
      </trkpt>
      <trkpt lat="46.71022" lon="-2.39236">
        <ele>19.84</ele>
        <time>2016-07-08T10:33:40Z</time>
      </trkpt>
      <trkpt lat="46.71022" lon="-2.39236">
        <ele>19.36</ele>
        <time>2016-07-08T10:34:10Z</time>
      </trkpt>
      <trkpt lat="46.71021" lon="-2.39235">
        <ele>19.36</ele>
        <time>2016-07-08T10:34:40Z</time>
      </trkpt>
      <trkpt lat="46.71021" lon="-2.39235">
        <ele>19.36</ele>
        <time>2016-07-08T10:35:10Z</time>
      </trkpt>
      <trkpt lat="46.71021" lon="-2.39234">
        <ele>20.32</ele>
        <time>2016-07-08T10:35:40Z</time>
      </trkpt>
      <trkpt lat="46.71021" lon="-2.39235">
        <ele>19.84</ele>
        <time>2016-07-08T10:36:10Z</time>
      </trkpt>
      <trkpt lat="46.71021" lon="-2.39235">
        <ele>19.84</ele>
        <time>2016-07-08T10:36:40Z</time>
      </trkpt>
      <trkpt lat="46.71021" lon="-2.39235">
        <ele>19.84</ele>
        <time>2016-07-08T10:37:10Z</time>
      </trkpt>
      <trkpt lat="46.71021" lon="-2.39235">
        <ele>20.32</ele>
        <time>2016-07-08T10:37:40Z</time>
      </trkpt>
      <trkpt lat="46.71021" lon="-2.39236">
        <ele>19.84</ele>
        <time>2016-07-08T10:38:10Z</time>
      </trkpt>
      <trkpt lat="46.71021" lon="-2.39235">
        <ele>19.84</ele>
        <time>2016-07-08T10:38:40Z</time>
      </trkpt>
      <trkpt lat="46.71021" lon="-2.39235">
        <ele>19.84</ele>
        <time>2016-07-08T10:39:10Z</time>
      </trkpt>
      <trkpt lat="46.71021" lon="-2.39235">
        <ele>18.88</ele>
        <time>2016-07-08T10:39:40Z</time>
      </trkpt>
      <trkpt lat="46.71021" lon="-2.39235">
        <ele>19.36</ele>
        <time>2016-07-08T10:40:10Z</time>
      </trkpt>
      <trkpt lat="46.71021" lon="-2.39235">
        <ele>19.36</ele>
        <time>2016-07-08T10:40:40Z</time>
      </trkpt>
      <trkpt lat="46.71021" lon="-2.39235">
        <ele>19.84</ele>
        <time>2016-07-08T10:41:10Z</time>
      </trkpt>
      <trkpt lat="46.71021" lon="-2.39235">
        <ele>19.36</ele>
        <time>2016-07-08T10:41:40Z</time>
      </trkpt>
      <trkpt lat="46.71021" lon="-2.39235">
        <ele>19.36</ele>
        <time>2016-07-08T10:42:10Z</time>
      </trkpt>
      <trkpt lat="46.71022" lon="-2.39235">
        <ele>19.36</ele>
        <time>2016-07-08T10:42:40Z</time>
      </trkpt>
      <trkpt lat="46.71021" lon="-2.39236">
        <ele>19.36</ele>
        <time>2016-07-08T10:43:10Z</time>
      </trkpt>
      <trkpt lat="46.71022" lon="-2.39236">
        <ele>19.36</ele>
        <time>2016-07-08T10:43:40Z</time>
      </trkpt>
      <trkpt lat="46.71022" lon="-2.39236">
        <ele>19.84</ele>
        <time>2016-07-08T10:44:10Z</time>
      </trkpt>
      <trkpt lat="46.71021" lon="-2.39236">
        <ele>19.36</ele>
        <time>2016-07-08T10:44:40Z</time>
      </trkpt>
      <trkpt lat="46.71022" lon="-2.39236">
        <ele>19.36</ele>
        <time>2016-07-08T10:45:10Z</time>
      </trkpt>
      <trkpt lat="46.71021" lon="-2.39236">
        <ele>19.36</ele>
        <time>2016-07-08T10:45:40Z</time>
      </trkpt>
      <trkpt lat="46.71022" lon="-2.39236">
        <ele>19.36</ele>
        <time>2016-07-08T10:46:10Z</time>
      </trkpt>
      <trkpt lat="46.71022" lon="-2.39237">
        <ele>19.36</ele>
        <time>2016-07-08T10:46:40Z</time>
      </trkpt>
      <trkpt lat="46.71022" lon="-2.39236">
        <ele>18.88</ele>
        <time>2016-07-08T10:47:10Z</time>
      </trkpt>
      <trkpt lat="46.71022" lon="-2.39235">
        <ele>18.4</ele>
        <time>2016-07-08T10:47:40Z</time>
      </trkpt>
      <trkpt lat="46.71022" lon="-2.39235">
        <ele>18.4</ele>
        <time>2016-07-08T10:48:10Z</time>
      </trkpt>
      <trkpt lat="46.71022" lon="-2.39236">
        <ele>18.4</ele>
        <time>2016-07-08T10:48:40Z</time>
      </trkpt>
      <trkpt lat="46.71021" lon="-2.39238">
        <ele>18.4</ele>
        <time>2016-07-08T10:49:10Z</time>
      </trkpt>
      <trkpt lat="46.71021" lon="-2.39239">
        <ele>18.4</ele>
        <time>2016-07-08T10:49:40Z</time>
      </trkpt>
      <trkpt lat="46.71022" lon="-2.39237">
        <ele>17.92</ele>
        <time>2016-07-08T10:50:10Z</time>
      </trkpt>
      <trkpt lat="46.71022" lon="-2.39239">
        <ele>18.4</ele>
        <time>2016-07-08T10:50:40Z</time>
      </trkpt>
      <trkpt lat="46.71022" lon="-2.39238">
        <ele>18.4</ele>
        <time>2016-07-08T10:51:10Z</time>
      </trkpt>
      <trkpt lat="46.71021" lon="-2.39235">
        <ele>18.88</ele>
        <time>2016-07-08T10:51:40Z</time>
      </trkpt>
      <trkpt lat="46.7102" lon="-2.39235">
        <ele>17.92</ele>
        <time>2016-07-08T10:52:10Z</time>
      </trkpt>
      <trkpt lat="46.71022" lon="-2.39234">
        <ele>17.92</ele>
        <time>2016-07-08T10:52:40Z</time>
      </trkpt>
      <trkpt lat="46.71021" lon="-2.39234">
        <ele>17.92</ele>
        <time>2016-07-08T10:53:10Z</time>
      </trkpt>
      <trkpt lat="46.71021" lon="-2.39234">
        <ele>18.4</ele>
        <time>2016-07-08T10:53:40Z</time>
      </trkpt>
      <trkpt lat="46.71021" lon="-2.39234">
        <ele>17.92</ele>
        <time>2016-07-08T10:54:10Z</time>
      </trkpt>
      <trkpt lat="46.71021" lon="-2.39234">
        <ele>17.92</ele>
        <time>2016-07-08T10:54:40Z</time>
      </trkpt>
      <trkpt lat="46.71021" lon="-2.39234">
        <ele>17.92</ele>
        <time>2016-07-08T10:55:10Z</time>
      </trkpt>
      <trkpt lat="46.71021" lon="-2.39233">
        <ele>17.92</ele>
        <time>2016-07-08T10:55:40Z</time>
      </trkpt>
      <trkpt lat="46.71022" lon="-2.39236">
        <ele>17.92</ele>
        <time>2016-07-08T10:56:10Z</time>
      </trkpt>
      <trkpt lat="46.71022" lon="-2.39235">
        <ele>17.92</ele>
        <time>2016-07-08T10:56:40Z</time>
      </trkpt>
      <trkpt lat="46.71022" lon="-2.39235">
        <ele>17.92</ele>
        <time>2016-07-08T10:57:10Z</time>
      </trkpt>
      <trkpt lat="46.71022" lon="-2.39235">
        <ele>17.92</ele>
        <time>2016-07-08T10:57:40Z</time>
      </trkpt>
      <trkpt lat="46.71022" lon="-2.39235">
        <ele>17.92</ele>
        <time>2016-07-08T10:58:10Z</time>
      </trkpt>
      <trkpt lat="46.71022" lon="-2.39235">
        <ele>17.92</ele>
        <time>2016-07-08T10:58:40Z</time>
      </trkpt>
      <trkpt lat="46.71022" lon="-2.39236">
        <ele>17.44</ele>
        <time>2016-07-08T10:59:10Z</time>
      </trkpt>
      <trkpt lat="46.71022" lon="-2.39235">
        <ele>17.92</ele>
        <time>2016-07-08T10:59:40Z</time>
      </trkpt>
      <trkpt lat="46.71022" lon="-2.39236">
        <ele>17.92</ele>
        <time>2016-07-08T11:00:10Z</time>
      </trkpt>
      <trkpt lat="46.71022" lon="-2.39236">
        <ele>17.92</ele>
        <time>2016-07-08T11:00:40Z</time>
      </trkpt>
      <trkpt lat="46.71022" lon="-2.39235">
        <ele>17.92</ele>
        <time>2016-07-08T11:01:10Z</time>
      </trkpt>
      <trkpt lat="46.71022" lon="-2.39235">
        <ele>17.92</ele>
        <time>2016-07-08T11:01:40Z</time>
      </trkpt>
      <trkpt lat="46.71022" lon="-2.39235">
        <ele>17.92</ele>
        <time>2016-07-08T11:02:10Z</time>
      </trkpt>
      <trkpt lat="46.71022" lon="-2.39237">
        <ele>18.88</ele>
        <time>2016-07-08T11:02:40Z</time>
      </trkpt>
      <trkpt lat="46.71022" lon="-2.3923">
        <ele>19.36</ele>
        <time>2016-07-08T11:03:10Z</time>
      </trkpt>
      <trkpt lat="46.71036" lon="-2.39206">
        <ele>19.36</ele>
        <time>2016-07-08T11:03:40Z</time>
      </trkpt>
      <trkpt lat="46.71053" lon="-2.39165">
        <ele>19.36</ele>
        <time>2016-07-08T11:04:10Z</time>
      </trkpt>
      <trkpt lat="46.71067" lon="-2.39128">
        <ele>17.44</ele>
        <time>2016-07-08T11:04:40Z</time>
      </trkpt>
      <trkpt lat="46.71068" lon="-2.39108">
        <ele>16.48</ele>
        <time>2016-07-08T11:05:10Z</time>
      </trkpt>
      <trkpt lat="46.71046" lon="-2.39074">
        <ele>16.48</ele>
        <time>2016-07-08T11:05:40Z</time>
      </trkpt>
      <trkpt lat="46.71031" lon="-2.39032">
        <ele>16.48</ele>
        <time>2016-07-08T11:06:10Z</time>
      </trkpt>
      <trkpt lat="46.71014" lon="-2.38987">
        <ele>16.96</ele>
        <time>2016-07-08T11:06:40Z</time>
      </trkpt>
      <trkpt lat="46.70994" lon="-2.38946">
        <ele>17.44</ele>
        <time>2016-07-08T11:07:10Z</time>
      </trkpt>
      <trkpt lat="46.70977" lon="-2.38904">
        <ele>16</ele>
        <time>2016-07-08T11:07:40Z</time>
      </trkpt>
      <trkpt lat="46.70957" lon="-2.38865">
        <ele>16</ele>
        <time>2016-07-08T11:08:10Z</time>
      </trkpt>
      <trkpt lat="46.70941" lon="-2.38818">
        <ele>16.48</ele>
        <time>2016-07-08T11:08:40Z</time>
      </trkpt>
      <trkpt lat="46.70926" lon="-2.38772">
        <ele>16.96</ele>
        <time>2016-07-08T11:09:10Z</time>
      </trkpt>
      <trkpt lat="46.70901" lon="-2.38749">
        <ele>16.96</ele>
        <time>2016-07-08T11:09:40Z</time>
      </trkpt>
      <trkpt lat="46.70876" lon="-2.38738">
        <ele>18.4</ele>
        <time>2016-07-08T11:10:10Z</time>
      </trkpt>
      <trkpt lat="46.70876" lon="-2.38738">
        <ele>18.88</ele>
        <time>2016-07-08T11:10:40Z</time>
      </trkpt>
      <trkpt lat="46.70869" lon="-2.38724">
        <ele>18.4</ele>
        <time>2016-07-08T11:11:10Z</time>
      </trkpt>
      <trkpt lat="46.70865" lon="-2.38679">
        <ele>16.48</ele>
        <time>2016-07-08T11:11:40Z</time>
      </trkpt>
      <trkpt lat="46.70841" lon="-2.38649">
        <ele>16.48</ele>
        <time>2016-07-08T11:12:10Z</time>
      </trkpt>
      <trkpt lat="46.70819" lon="-2.38638">
        <ele>17.44</ele>
        <time>2016-07-08T11:12:40Z</time>
      </trkpt>
      <trkpt lat="46.70802" lon="-2.38622">
        <ele>18.4</ele>
        <time>2016-07-08T11:13:10Z</time>
      </trkpt>
      <trkpt lat="46.70769" lon="-2.38611">
        <ele>19.36</ele>
        <time>2016-07-08T11:13:40Z</time>
      </trkpt>
      <trkpt lat="46.70766" lon="-2.38606">
        <ele>18.88</ele>
        <time>2016-07-08T11:14:10Z</time>
      </trkpt>
      <trkpt lat="46.7076" lon="-2.38597">
        <ele>17.92</ele>
        <time>2016-07-08T11:14:40Z</time>
      </trkpt>
      <trkpt lat="46.7076" lon="-2.38599">
        <ele>18.4</ele>
        <time>2016-07-08T11:15:10Z</time>
      </trkpt>
      <trkpt lat="46.70759" lon="-2.38598">
        <ele>18.4</ele>
        <time>2016-07-08T11:15:40Z</time>
      </trkpt>
      <trkpt lat="46.7076" lon="-2.38599">
        <ele>18.4</ele>
        <time>2016-07-08T11:16:10Z</time>
      </trkpt>
      <trkpt lat="46.70776" lon="-2.38569">
        <ele>18.4</ele>
        <time>2016-07-08T11:16:40Z</time>
      </trkpt>
      <trkpt lat="46.7079" lon="-2.38556">
        <ele>19.84</ele>
        <time>2016-07-08T11:17:10Z</time>
      </trkpt>
      <trkpt lat="46.70803" lon="-2.38542">
        <ele>18.88</ele>
        <time>2016-07-08T11:17:40Z</time>
      </trkpt>
      <trkpt lat="46.70808" lon="-2.38536">
        <ele>18.4</ele>
        <time>2016-07-08T11:18:10Z</time>
      </trkpt>
      <trkpt lat="46.70816" lon="-2.38511">
        <ele>17.92</ele>
        <time>2016-07-08T11:18:40Z</time>
      </trkpt>
      <trkpt lat="46.70818" lon="-2.38467">
        <ele>16.96</ele>
        <time>2016-07-08T11:19:10Z</time>
      </trkpt>
      <trkpt lat="46.70824" lon="-2.38437">
        <ele>15.52</ele>
        <time>2016-07-08T11:19:40Z</time>
      </trkpt>
      <trkpt lat="46.7082" lon="-2.38407">
        <ele>9.75</ele>
        <time>2016-07-08T11:20:10Z</time>
      </trkpt>
      <trkpt lat="46.7081" lon="-2.38381">
        <ele>13.6</ele>
        <time>2016-07-08T11:20:40Z</time>
      </trkpt>
      <trkpt lat="46.70795" lon="-2.38362">
        <ele>17.92</ele>
        <time>2016-07-08T11:21:10Z</time>
      </trkpt>
      <trkpt lat="46.70775" lon="-2.38331">
        <ele>18.4</ele>
        <time>2016-07-08T11:21:40Z</time>
      </trkpt>
      <trkpt lat="46.70751" lon="-2.38296">
        <ele>17.92</ele>
        <time>2016-07-08T11:22:10Z</time>
      </trkpt>
      <trkpt lat="46.7072" lon="-2.38281">
        <ele>18.88</ele>
        <time>2016-07-08T11:22:40Z</time>
      </trkpt>
      <trkpt lat="46.7069" lon="-2.38253">
        <ele>19.36</ele>
        <time>2016-07-08T11:23:10Z</time>
      </trkpt>
      <trkpt lat="46.70663" lon="-2.38221">
        <ele>19.36</ele>
        <time>2016-07-08T11:23:40Z</time>
      </trkpt>
      <trkpt lat="46.70652" lon="-2.38215">
        <ele>19.84</ele>
        <time>2016-07-08T11:24:10Z</time>
      </trkpt>
      <trkpt lat="46.70653" lon="-2.38216">
        <ele>18.4</ele>
        <time>2016-07-08T11:24:40Z</time>
      </trkpt>
      <trkpt lat="46.70648" lon="-2.38179">
        <ele>18.4</ele>
        <time>2016-07-08T11:25:10Z</time>
      </trkpt>
      <trkpt lat="46.70644" lon="-2.38167">
        <ele>19.36</ele>
        <time>2016-07-08T11:25:40Z</time>
      </trkpt>
      <trkpt lat="46.70643" lon="-2.38165">
        <ele>19.36</ele>
        <time>2016-07-08T11:26:10Z</time>
      </trkpt>
      <trkpt lat="46.70627" lon="-2.38124">
        <ele>17.44</ele>
        <time>2016-07-08T11:26:40Z</time>
      </trkpt>
      <trkpt lat="46.70619" lon="-2.38116">
        <ele>15.04</ele>
        <time>2016-07-08T11:27:10Z</time>
      </trkpt>
      <trkpt lat="46.7062" lon="-2.38089">
        <ele>16.48</ele>
        <time>2016-07-08T11:27:40Z</time>
      </trkpt>
      <trkpt lat="46.70615" lon="-2.38053">
        <ele>16.96</ele>
        <time>2016-07-08T11:28:10Z</time>
      </trkpt>
      <trkpt lat="46.70597" lon="-2.38012">
        <ele>16.48</ele>
        <time>2016-07-08T11:28:40Z</time>
      </trkpt>
      <trkpt lat="46.70574" lon="-2.37973">
        <ele>16.96</ele>
        <time>2016-07-08T11:29:10Z</time>
      </trkpt>
      <trkpt lat="46.70551" lon="-2.37934">
        <ele>17.44</ele>
        <time>2016-07-08T11:29:40Z</time>
      </trkpt>
      <trkpt lat="46.70523" lon="-2.37908">
        <ele>16.96</ele>
        <time>2016-07-08T11:30:10Z</time>
      </trkpt>
      <trkpt lat="46.7049" lon="-2.37904">
        <ele>17.44</ele>
        <time>2016-07-08T11:30:40Z</time>
      </trkpt>
      <trkpt lat="46.70463" lon="-2.37901">
        <ele>16.48</ele>
        <time>2016-07-08T11:31:10Z</time>
      </trkpt>
      <trkpt lat="46.70462" lon="-2.37904">
        <ele>16.48</ele>
        <time>2016-07-08T11:31:40Z</time>
      </trkpt>
      <trkpt lat="46.70459" lon="-2.37893">
        <ele>16.48</ele>
        <time>2016-07-08T11:32:10Z</time>
      </trkpt>
      <trkpt lat="46.70426" lon="-2.37902">
        <ele>16.48</ele>
        <time>2016-07-08T11:32:40Z</time>
      </trkpt>
      <trkpt lat="46.70393" lon="-2.37917">
        <ele>16</ele>
        <time>2016-07-08T11:33:10Z</time>
      </trkpt>
      <trkpt lat="46.70361" lon="-2.37942">
        <ele>14.56</ele>
        <time>2016-07-08T11:33:40Z</time>
      </trkpt>
      <trkpt lat="46.70346" lon="-2.37991">
        <ele>13.6</ele>
        <time>2016-07-08T11:34:10Z</time>
      </trkpt>
      <trkpt lat="46.7032" lon="-2.38005">
        <ele>13.6</ele>
        <time>2016-07-08T11:34:40Z</time>
      </trkpt>
      <trkpt lat="46.70286" lon="-2.37998">
        <ele>12.63</ele>
        <time>2016-07-08T11:35:10Z</time>
      </trkpt>
      <trkpt lat="46.70258" lon="-2.38029">
        <ele>13.12</ele>
        <time>2016-07-08T11:35:40Z</time>
      </trkpt>
      <trkpt lat="46.70252" lon="-2.38043">
        <ele>13.12</ele>
        <time>2016-07-08T11:36:10Z</time>
      </trkpt>
      <trkpt lat="46.70254" lon="-2.38076">
        <ele>12.63</ele>
        <time>2016-07-08T11:36:40Z</time>
      </trkpt>
      <trkpt lat="46.70223" lon="-2.38064">
        <ele>14.08</ele>
        <time>2016-07-08T11:37:10Z</time>
      </trkpt>
      <trkpt lat="46.7019" lon="-2.38036">
        <ele>14.08</ele>
        <time>2016-07-08T11:37:40Z</time>
      </trkpt>
      <trkpt lat="46.70166" lon="-2.38047">
        <ele>14.08</ele>
        <time>2016-07-08T11:38:10Z</time>
      </trkpt>
      <trkpt lat="46.70132" lon="-2.38073">
        <ele>11.19</ele>
        <time>2016-07-08T11:38:40Z</time>
      </trkpt>
      <trkpt lat="46.70102" lon="-2.38099">
        <ele>11.19</ele>
        <time>2016-07-08T11:39:10Z</time>
      </trkpt>
      <trkpt lat="46.70104" lon="-2.3815">
        <ele>13.12</ele>
        <time>2016-07-08T11:39:40Z</time>
      </trkpt>
      <trkpt lat="46.70107" lon="-2.38152">
        <ele>12.63</ele>
        <time>2016-07-08T11:40:10Z</time>
      </trkpt>
      <trkpt lat="46.70101" lon="-2.38162">
        <ele>13.12</ele>
        <time>2016-07-08T11:40:40Z</time>
      </trkpt>
      <trkpt lat="46.70076" lon="-2.3819">
        <ele>14.08</ele>
        <time>2016-07-08T11:41:10Z</time>
      </trkpt>
      <trkpt lat="46.70048" lon="-2.3818">
        <ele>14.56</ele>
        <time>2016-07-08T11:41:40Z</time>
      </trkpt>
      <trkpt lat="46.70023" lon="-2.38174">
        <ele>14.56</ele>
        <time>2016-07-08T11:42:10Z</time>
      </trkpt>
      <trkpt lat="46.70005" lon="-2.38184">
        <ele>14.08</ele>
        <time>2016-07-08T11:42:40Z</time>
      </trkpt>
      <trkpt lat="46.70013" lon="-2.3822">
        <ele>13.6</ele>
        <time>2016-07-08T11:43:10Z</time>
      </trkpt>
      <trkpt lat="46.70013" lon="-2.3822">
        <ele>14.56</ele>
        <time>2016-07-08T11:43:40Z</time>
      </trkpt>
      <trkpt lat="46.70003" lon="-2.38255">
        <ele>17.92</ele>
        <time>2016-07-08T11:44:10Z</time>
      </trkpt>
      <trkpt lat="46.70002" lon="-2.38258">
        <ele>18.4</ele>
        <time>2016-07-08T11:44:40Z</time>
      </trkpt>
      <trkpt lat="46.69992" lon="-2.38269">
        <ele>19.84</ele>
        <time>2016-07-08T11:45:10Z</time>
      </trkpt>
      <trkpt lat="46.6999" lon="-2.3827">
        <ele>19.84</ele>
        <time>2016-07-08T11:45:40Z</time>
      </trkpt>
      <trkpt lat="46.6999" lon="-2.38266">
        <ele>19.84</ele>
        <time>2016-07-08T11:46:10Z</time>
      </trkpt>
      <trkpt lat="46.69991" lon="-2.3827">
        <ele>19.36</ele>
        <time>2016-07-08T11:46:40Z</time>
      </trkpt>
      <trkpt lat="46.69989" lon="-2.38271">
        <ele>17.44</ele>
        <time>2016-07-08T11:47:10Z</time>
      </trkpt>
      <trkpt lat="46.69989" lon="-2.38267">
        <ele>18.88</ele>
        <time>2016-07-08T11:47:40Z</time>
      </trkpt>
      <trkpt lat="46.69992" lon="-2.38269">
        <ele>17.92</ele>
        <time>2016-07-08T11:48:10Z</time>
      </trkpt>
      <trkpt lat="46.69992" lon="-2.38273">
        <ele>17.92</ele>
        <time>2016-07-08T11:48:40Z</time>
      </trkpt>
      <trkpt lat="46.69993" lon="-2.38279">
        <ele>17.92</ele>
        <time>2016-07-08T11:49:10Z</time>
      </trkpt>
      <trkpt lat="46.69992" lon="-2.3828">
        <ele>16.96</ele>
        <time>2016-07-08T11:49:40Z</time>
      </trkpt>
      <trkpt lat="46.6999" lon="-2.38275">
        <ele>17.44</ele>
        <time>2016-07-08T11:50:10Z</time>
      </trkpt>
      <trkpt lat="46.69997" lon="-2.38265">
        <ele>18.88</ele>
        <time>2016-07-08T11:50:40Z</time>
      </trkpt>
      <trkpt lat="46.70013" lon="-2.38228">
        <ele>15.04</ele>
        <time>2016-07-08T11:51:10Z</time>
      </trkpt>
      <trkpt lat="46.70003" lon="-2.38192">
        <ele>15.52</ele>
        <time>2016-07-08T11:51:40Z</time>
      </trkpt>
      <trkpt lat="46.70004" lon="-2.38155">
        <ele>13.12</ele>
        <time>2016-07-08T11:52:10Z</time>
      </trkpt>
      <trkpt lat="46.70005" lon="-2.38142">
        <ele>14.08</ele>
        <time>2016-07-08T11:52:40Z</time>
      </trkpt>
      <trkpt lat="46.70006" lon="-2.38142">
        <ele>13.12</ele>
        <time>2016-07-08T11:53:10Z</time>
      </trkpt>
      <trkpt lat="46.70001" lon="-2.38098">
        <ele>14.08</ele>
        <time>2016-07-08T11:53:40Z</time>
      </trkpt>
      <trkpt lat="46.69993" lon="-2.38056">
        <ele>14.56</ele>
        <time>2016-07-08T11:54:10Z</time>
      </trkpt>
      <trkpt lat="46.69976" lon="-2.38024">
        <ele>14.56</ele>
        <time>2016-07-08T11:54:40Z</time>
      </trkpt>
      <trkpt lat="46.69953" lon="-2.3799">
        <ele>17.44</ele>
        <time>2016-07-08T11:55:10Z</time>
      </trkpt>
      <trkpt lat="46.69925" lon="-2.37983">
        <ele>19.84</ele>
        <time>2016-07-08T11:55:40Z</time>
      </trkpt>
      <trkpt lat="46.69922" lon="-2.37981">
        <ele>20.32</ele>
        <time>2016-07-08T11:56:10Z</time>
      </trkpt>
      <trkpt lat="46.69917" lon="-2.37944">
        <ele>20.32</ele>
        <time>2016-07-08T11:56:40Z</time>
      </trkpt>
      <trkpt lat="46.69928" lon="-2.37917">
        <ele>18.88</ele>
        <time>2016-07-08T11:57:10Z</time>
      </trkpt>
      <trkpt lat="46.69944" lon="-2.37898">
        <ele>18.4</ele>
        <time>2016-07-08T11:57:40Z</time>
      </trkpt>
      <trkpt lat="46.69955" lon="-2.37892">
        <ele>17.44</ele>
        <time>2016-07-08T11:58:10Z</time>
      </trkpt>
      <trkpt lat="46.69975" lon="-2.37859">
        <ele>13.12</ele>
        <time>2016-07-08T11:58:40Z</time>
      </trkpt>
      <trkpt lat="46.69974" lon="-2.37847">
        <ele>10.23</ele>
        <time>2016-07-08T11:59:10Z</time>
      </trkpt>
      <trkpt lat="46.69975" lon="-2.37845">
        <ele>10.23</ele>
        <time>2016-07-08T11:59:40Z</time>
      </trkpt>
      <trkpt lat="46.69976" lon="-2.37843">
        <ele>10.23</ele>
        <time>2016-07-08T12:00:10Z</time>
      </trkpt>
      <trkpt lat="46.69975" lon="-2.37842">
        <ele>10.71</ele>
        <time>2016-07-08T12:00:40Z</time>
      </trkpt>
      <trkpt lat="46.69976" lon="-2.37842">
        <ele>11.19</ele>
        <time>2016-07-08T12:01:10Z</time>
      </trkpt>
      <trkpt lat="46.69975" lon="-2.37843">
        <ele>11.19</ele>
        <time>2016-07-08T12:01:40Z</time>
      </trkpt>
      <trkpt lat="46.69976" lon="-2.37844">
        <ele>11.19</ele>
        <time>2016-07-08T12:02:10Z</time>
      </trkpt>
      <trkpt lat="46.69977" lon="-2.37847">
        <ele>11.67</ele>
        <time>2016-07-08T12:02:40Z</time>
      </trkpt>
      <trkpt lat="46.69974" lon="-2.37846">
        <ele>11.19</ele>
        <time>2016-07-08T12:03:10Z</time>
      </trkpt>
      <trkpt lat="46.69976" lon="-2.37847">
        <ele>12.63</ele>
        <time>2016-07-08T12:03:40Z</time>
      </trkpt>
      <trkpt lat="46.69976" lon="-2.37847">
        <ele>13.12</ele>
        <time>2016-07-08T12:04:10Z</time>
      </trkpt>
      <trkpt lat="46.69977" lon="-2.37847">
        <ele>12.63</ele>
        <time>2016-07-08T12:04:40Z</time>
      </trkpt>
      <trkpt lat="46.69977" lon="-2.37845">
        <ele>12.15</ele>
        <time>2016-07-08T12:05:10Z</time>
      </trkpt>
      <trkpt lat="46.69998" lon="-2.37837">
        <ele>13.12</ele>
        <time>2016-07-08T12:05:40Z</time>
      </trkpt>
      <trkpt lat="46.70025" lon="-2.3781">
        <ele>15.52</ele>
        <time>2016-07-08T12:06:10Z</time>
      </trkpt>
      <trkpt lat="46.70036" lon="-2.37763">
        <ele>13.6</ele>
        <time>2016-07-08T12:06:40Z</time>
      </trkpt>
      <trkpt lat="46.70058" lon="-2.37731">
        <ele>13.6</ele>
        <time>2016-07-08T12:07:10Z</time>
      </trkpt>
      <trkpt lat="46.70087" lon="-2.37729">
        <ele>13.6</ele>
        <time>2016-07-08T12:07:40Z</time>
      </trkpt>
      <trkpt lat="46.70117" lon="-2.37748">
        <ele>12.15</ele>
        <time>2016-07-08T12:08:10Z</time>
      </trkpt>
      <trkpt lat="46.70132" lon="-2.37781">
        <ele>11.67</ele>
        <time>2016-07-08T12:08:40Z</time>
      </trkpt>
      <trkpt lat="46.70159" lon="-2.37811">
        <ele>12.63</ele>
        <time>2016-07-08T12:09:10Z</time>
      </trkpt>
      <trkpt lat="46.70189" lon="-2.37798">
        <ele>12.15</ele>
        <time>2016-07-08T12:09:40Z</time>
      </trkpt>
      <trkpt lat="46.70217" lon="-2.3777">
        <ele>13.6</ele>
        <time>2016-07-08T12:10:10Z</time>
      </trkpt>
      <trkpt lat="46.70243" lon="-2.37737">
        <ele>13.6</ele>
        <time>2016-07-08T12:10:40Z</time>
      </trkpt>
      <trkpt lat="46.70268" lon="-2.37705">
        <ele>12.63</ele>
        <time>2016-07-08T12:11:10Z</time>
      </trkpt>
      <trkpt lat="46.70293" lon="-2.37671">
        <ele>12.63</ele>
        <time>2016-07-08T12:11:40Z</time>
      </trkpt>
      <trkpt lat="46.70319" lon="-2.3764">
        <ele>12.15</ele>
        <time>2016-07-08T12:12:10Z</time>
      </trkpt>
      <trkpt lat="46.70329" lon="-2.3762">
        <ele>12.63</ele>
        <time>2016-07-08T12:12:40Z</time>
      </trkpt>
      <trkpt lat="46.70337" lon="-2.37608">
        <ele>12.15</ele>
        <time>2016-07-08T12:13:10Z</time>
      </trkpt>
      <trkpt lat="46.70338" lon="-2.37575">
        <ele>11.19</ele>
        <time>2016-07-08T12:13:40Z</time>
      </trkpt>
      <trkpt lat="46.70338" lon="-2.37561">
        <ele>11.19</ele>
        <time>2016-07-08T12:14:10Z</time>
      </trkpt>
      <trkpt lat="46.70333" lon="-2.37522">
        <ele>11.19</ele>
        <time>2016-07-08T12:14:40Z</time>
      </trkpt>
      <trkpt lat="46.70347" lon="-2.37472">
        <ele>13.12</ele>
        <time>2016-07-08T12:15:10Z</time>
      </trkpt>
      <trkpt lat="46.7032" lon="-2.37457">
        <ele>13.6</ele>
        <time>2016-07-08T12:15:40Z</time>
      </trkpt>
      <trkpt lat="46.70303" lon="-2.37419">
        <ele>12.63</ele>
        <time>2016-07-08T12:16:10Z</time>
      </trkpt>
      <trkpt lat="46.70299" lon="-2.37372">
        <ele>15.04</ele>
        <time>2016-07-08T12:16:40Z</time>
      </trkpt>
      <trkpt lat="46.70289" lon="-2.37342">
        <ele>15.52</ele>
        <time>2016-07-08T12:17:10Z</time>
      </trkpt>
      <trkpt lat="46.70289" lon="-2.37326">
        <ele>14.56</ele>
        <time>2016-07-08T12:17:40Z</time>
      </trkpt>
      <trkpt lat="46.70277" lon="-2.37274">
        <ele>15.52</ele>
        <time>2016-07-08T12:18:10Z</time>
      </trkpt>
      <trkpt lat="46.70262" lon="-2.37232">
        <ele>16</ele>
        <time>2016-07-08T12:18:40Z</time>
      </trkpt>
      <trkpt lat="46.70243" lon="-2.37212">
        <ele>15.04</ele>
        <time>2016-07-08T12:19:10Z</time>
      </trkpt>
      <trkpt lat="46.70247" lon="-2.37195">
        <ele>13.6</ele>
        <time>2016-07-08T12:19:40Z</time>
      </trkpt>
      <trkpt lat="46.70237" lon="-2.37141">
        <ele>14.08</ele>
        <time>2016-07-08T12:20:10Z</time>
      </trkpt>
      <trkpt lat="46.70227" lon="-2.37099">
        <ele>14.08</ele>
        <time>2016-07-08T12:20:40Z</time>
      </trkpt>
      <trkpt lat="46.70217" lon="-2.3705">
        <ele>16.96</ele>
        <time>2016-07-08T12:21:10Z</time>
      </trkpt>
      <trkpt lat="46.70213" lon="-2.3701">
        <ele>19.36</ele>
        <time>2016-07-08T12:21:40Z</time>
      </trkpt>
      <trkpt lat="46.70231" lon="-2.37003">
        <ele>20.81</ele>
        <time>2016-07-08T12:22:10Z</time>
      </trkpt>
      <trkpt lat="46.70246" lon="-2.36973">
        <ele>21.29</ele>
        <time>2016-07-08T12:22:40Z</time>
      </trkpt>
      <trkpt lat="46.70268" lon="-2.3693">
        <ele>23.21</ele>
        <time>2016-07-08T12:23:10Z</time>
      </trkpt>
      <trkpt lat="46.70283" lon="-2.36886">
        <ele>22.25</ele>
        <time>2016-07-08T12:23:40Z</time>
      </trkpt>
      <trkpt lat="46.70268" lon="-2.3686">
        <ele>18.4</ele>
        <time>2016-07-08T12:24:10Z</time>
      </trkpt>
      <trkpt lat="46.70243" lon="-2.36857">
        <ele>13.6</ele>
        <time>2016-07-08T12:24:40Z</time>
      </trkpt>
      <trkpt lat="46.70221" lon="-2.36835">
        <ele>14.56</ele>
        <time>2016-07-08T12:25:10Z</time>
      </trkpt>
      <trkpt lat="46.70221" lon="-2.36826">
        <ele>16.96</ele>
        <time>2016-07-08T12:25:40Z</time>
      </trkpt>
      <trkpt lat="46.7022" lon="-2.36825">
        <ele>17.92</ele>
        <time>2016-07-08T12:26:10Z</time>
      </trkpt>
      <trkpt lat="46.7022" lon="-2.36825">
        <ele>17.44</ele>
        <time>2016-07-08T12:26:40Z</time>
      </trkpt>
      <trkpt lat="46.70221" lon="-2.36824">
        <ele>17.44</ele>
        <time>2016-07-08T12:27:10Z</time>
      </trkpt>
      <trkpt lat="46.70227" lon="-2.36808">
        <ele>19.36</ele>
        <time>2016-07-08T12:27:40Z</time>
      </trkpt>
      <trkpt lat="46.70212" lon="-2.36791">
        <ele>25.13</ele>
        <time>2016-07-08T12:28:10Z</time>
      </trkpt>
      <trkpt lat="46.70206" lon="-2.36801">
        <ele>27.05</ele>
        <time>2016-07-08T12:28:40Z</time>
      </trkpt>
      <trkpt lat="46.70182" lon="-2.36824">
        <ele>26.09</ele>
        <time>2016-07-08T12:29:10Z</time>
      </trkpt>
      <trkpt lat="46.70144" lon="-2.36811">
        <ele>26.09</ele>
        <time>2016-07-08T12:29:40Z</time>
      </trkpt>
      <trkpt lat="46.70108" lon="-2.36807">
        <ele>25.61</ele>
        <time>2016-07-08T12:30:10Z</time>
      </trkpt>
      <trkpt lat="46.70074" lon="-2.36799">
        <ele>24.17</ele>
        <time>2016-07-08T12:30:40Z</time>
      </trkpt>
      <trkpt lat="46.70046" lon="-2.36787">
        <ele>23.21</ele>
        <time>2016-07-08T12:31:10Z</time>
      </trkpt>
      <trkpt lat="46.70047" lon="-2.36788">
        <ele>22.73</ele>
        <time>2016-07-08T12:31:40Z</time>
      </trkpt>
      <trkpt lat="46.70047" lon="-2.36785">
        <ele>23.21</ele>
        <time>2016-07-08T12:32:10Z</time>
      </trkpt>
      <trkpt lat="46.70014" lon="-2.36767">
        <ele>21.77</ele>
        <time>2016-07-08T12:32:40Z</time>
      </trkpt>
      <trkpt lat="46.69987" lon="-2.36733">
        <ele>22.25</ele>
        <time>2016-07-08T12:33:10Z</time>
      </trkpt>
      <trkpt lat="46.69972" lon="-2.36718">
        <ele>24.65</ele>
        <time>2016-07-08T12:33:40Z</time>
      </trkpt>
      <trkpt lat="46.6995" lon="-2.36748">
        <ele>21.77</ele>
        <time>2016-07-08T12:34:10Z</time>
      </trkpt>
      <trkpt lat="46.69953" lon="-2.36763">
        <ele>19.84</ele>
        <time>2016-07-08T12:34:40Z</time>
      </trkpt>
      <trkpt lat="46.6996" lon="-2.36788">
        <ele>18.4</ele>
        <time>2016-07-08T12:35:10Z</time>
      </trkpt>
      <trkpt lat="46.69972" lon="-2.36828">
        <ele>16.96</ele>
        <time>2016-07-08T12:35:40Z</time>
      </trkpt>
      <trkpt lat="46.69976" lon="-2.3683">
        <ele>16</ele>
        <time>2016-07-08T12:36:10Z</time>
      </trkpt>
      <trkpt lat="46.69972" lon="-2.36828">
        <ele>16</ele>
        <time>2016-07-08T12:36:40Z</time>
      </trkpt>
      <trkpt lat="46.6997" lon="-2.36827">
        <ele>16.48</ele>
        <time>2016-07-08T12:37:10Z</time>
      </trkpt>
      <trkpt lat="46.69977" lon="-2.36831">
        <ele>16.48</ele>
        <time>2016-07-08T12:37:40Z</time>
      </trkpt>
      <trkpt lat="46.69977" lon="-2.36831">
        <ele>16.96</ele>
        <time>2016-07-08T12:38:10Z</time>
      </trkpt>
      <trkpt lat="46.69978" lon="-2.36832">
        <ele>16.96</ele>
        <time>2016-07-08T12:38:40Z</time>
      </trkpt>
      <trkpt lat="46.69978" lon="-2.36831">
        <ele>16.96</ele>
        <time>2016-07-08T12:39:10Z</time>
      </trkpt>
      <trkpt lat="46.69978" lon="-2.36832">
        <ele>16.96</ele>
        <time>2016-07-08T12:39:40Z</time>
      </trkpt>
      <trkpt lat="46.69977" lon="-2.36832">
        <ele>17.44</ele>
        <time>2016-07-08T12:40:10Z</time>
      </trkpt>
      <trkpt lat="46.69977" lon="-2.36832">
        <ele>17.44</ele>
        <time>2016-07-08T12:40:40Z</time>
      </trkpt>
      <trkpt lat="46.69977" lon="-2.36832">
        <ele>16.96</ele>
        <time>2016-07-08T12:41:10Z</time>
      </trkpt>
      <trkpt lat="46.69976" lon="-2.36832">
        <ele>16.48</ele>
        <time>2016-07-08T12:41:40Z</time>
      </trkpt>
      <trkpt lat="46.69978" lon="-2.36833">
        <ele>17.44</ele>
        <time>2016-07-08T12:42:10Z</time>
      </trkpt>
      <trkpt lat="46.69978" lon="-2.36834">
        <ele>16.96</ele>
        <time>2016-07-08T12:42:40Z</time>
      </trkpt>
      <trkpt lat="46.69977" lon="-2.36833">
        <ele>16.96</ele>
        <time>2016-07-08T12:43:10Z</time>
      </trkpt>
      <trkpt lat="46.69978" lon="-2.36833">
        <ele>17.44</ele>
        <time>2016-07-08T12:43:40Z</time>
      </trkpt>
      <trkpt lat="46.69977" lon="-2.36832">
        <ele>17.44</ele>
        <time>2016-07-08T12:44:10Z</time>
      </trkpt>
      <trkpt lat="46.69978" lon="-2.36832">
        <ele>17.44</ele>
        <time>2016-07-08T12:44:40Z</time>
      </trkpt>
      <trkpt lat="46.69977" lon="-2.36832">
        <ele>17.44</ele>
        <time>2016-07-08T12:45:10Z</time>
      </trkpt>
      <trkpt lat="46.69979" lon="-2.36833">
        <ele>17.44</ele>
        <time>2016-07-08T12:45:40Z</time>
      </trkpt>
      <trkpt lat="46.69977" lon="-2.36832">
        <ele>17.44</ele>
        <time>2016-07-08T12:46:10Z</time>
      </trkpt>
      <trkpt lat="46.69978" lon="-2.36833">
        <ele>17.44</ele>
        <time>2016-07-08T12:46:40Z</time>
      </trkpt>
      <trkpt lat="46.69978" lon="-2.36832">
        <ele>17.44</ele>
        <time>2016-07-08T12:47:10Z</time>
      </trkpt>
      <trkpt lat="46.69977" lon="-2.36832">
        <ele>17.44</ele>
        <time>2016-07-08T12:47:40Z</time>
      </trkpt>
      <trkpt lat="46.69977" lon="-2.36832">
        <ele>17.44</ele>
        <time>2016-07-08T12:48:10Z</time>
      </trkpt>
      <trkpt lat="46.69978" lon="-2.36832">
        <ele>17.44</ele>
        <time>2016-07-08T12:48:40Z</time>
      </trkpt>
      <trkpt lat="46.69978" lon="-2.36832">
        <ele>17.44</ele>
        <time>2016-07-08T12:49:10Z</time>
      </trkpt>
      <trkpt lat="46.69978" lon="-2.36834">
        <ele>17.92</ele>
        <time>2016-07-08T12:49:40Z</time>
      </trkpt>
      <trkpt lat="46.69977" lon="-2.36831">
        <ele>16.96</ele>
        <time>2016-07-08T12:50:10Z</time>
      </trkpt>
      <trkpt lat="46.69977" lon="-2.36832">
        <ele>17.44</ele>
        <time>2016-07-08T12:50:40Z</time>
      </trkpt>
      <trkpt lat="46.69977" lon="-2.36834">
        <ele>16.96</ele>
        <time>2016-07-08T12:51:10Z</time>
      </trkpt>
      <trkpt lat="46.69976" lon="-2.36831">
        <ele>17.44</ele>
        <time>2016-07-08T12:51:40Z</time>
      </trkpt>
      <trkpt lat="46.69978" lon="-2.3683">
        <ele>17.44</ele>
        <time>2016-07-08T12:52:10Z</time>
      </trkpt>
      <trkpt lat="46.69978" lon="-2.36831">
        <ele>17.44</ele>
        <time>2016-07-08T12:52:40Z</time>
      </trkpt>
      <trkpt lat="46.69976" lon="-2.36832">
        <ele>17.44</ele>
        <time>2016-07-08T12:53:10Z</time>
      </trkpt>
      <trkpt lat="46.69975" lon="-2.36836">
        <ele>17.44</ele>
        <time>2016-07-08T12:53:40Z</time>
      </trkpt>
      <trkpt lat="46.69976" lon="-2.36836">
        <ele>17.92</ele>
        <time>2016-07-08T12:54:10Z</time>
      </trkpt>
      <trkpt lat="46.69976" lon="-2.36833">
        <ele>17.92</ele>
        <time>2016-07-08T12:54:40Z</time>
      </trkpt>
      <trkpt lat="46.69977" lon="-2.36831">
        <ele>16.96</ele>
        <time>2016-07-08T12:55:10Z</time>
      </trkpt>
      <trkpt lat="46.69978" lon="-2.36833">
        <ele>17.44</ele>
        <time>2016-07-08T12:55:40Z</time>
      </trkpt>
      <trkpt lat="46.69975" lon="-2.36835">
        <ele>16.96</ele>
        <time>2016-07-08T12:56:10Z</time>
      </trkpt>
      <trkpt lat="46.69977" lon="-2.36832">
        <ele>17.92</ele>
        <time>2016-07-08T12:56:40Z</time>
      </trkpt>
      <trkpt lat="46.69978" lon="-2.36831">
        <ele>17.92</ele>
        <time>2016-07-08T12:57:10Z</time>
      </trkpt>
      <trkpt lat="46.69978" lon="-2.36835">
        <ele>16.96</ele>
        <time>2016-07-08T12:57:40Z</time>
      </trkpt>
      <trkpt lat="46.69977" lon="-2.36831">
        <ele>19.36</ele>
        <time>2016-07-08T12:58:10Z</time>
      </trkpt>
      <trkpt lat="46.69969" lon="-2.3681">
        <ele>17.44</ele>
        <time>2016-07-08T12:58:40Z</time>
      </trkpt>
      <trkpt lat="46.69955" lon="-2.36768">
        <ele>21.29</ele>
        <time>2016-07-08T12:59:10Z</time>
      </trkpt>
      <trkpt lat="46.69958" lon="-2.36733">
        <ele>24.17</ele>
        <time>2016-07-08T12:59:40Z</time>
      </trkpt>
      <trkpt lat="46.69961" lon="-2.36699">
        <ele>25.61</ele>
        <time>2016-07-08T13:00:10Z</time>
      </trkpt>
      <trkpt lat="46.69933" lon="-2.36665">
        <ele>27.05</ele>
        <time>2016-07-08T13:00:40Z</time>
      </trkpt>
      <trkpt lat="46.69898" lon="-2.36657">
        <ele>27.53</ele>
        <time>2016-07-08T13:01:10Z</time>
      </trkpt>
      <trkpt lat="46.69868" lon="-2.36639">
        <ele>27.53</ele>
        <time>2016-07-08T13:01:40Z</time>
      </trkpt>
      <trkpt lat="46.69853" lon="-2.36616">
        <ele>28.98</ele>
        <time>2016-07-08T13:02:10Z</time>
      </trkpt>
      <trkpt lat="46.69845" lon="-2.3661">
        <ele>28.02</ele>
        <time>2016-07-08T13:02:40Z</time>
      </trkpt>
      <trkpt lat="46.69815" lon="-2.36593">
        <ele>27.05</ele>
        <time>2016-07-08T13:03:10Z</time>
      </trkpt>
      <trkpt lat="46.69788" lon="-2.36563">
        <ele>26.09</ele>
        <time>2016-07-08T13:03:40Z</time>
      </trkpt>
      <trkpt lat="46.69763" lon="-2.36528">
        <ele>26.09</ele>
        <time>2016-07-08T13:04:10Z</time>
      </trkpt>
      <trkpt lat="46.69746" lon="-2.3649">
        <ele>27.53</ele>
        <time>2016-07-08T13:04:40Z</time>
      </trkpt>
      <trkpt lat="46.6973" lon="-2.36475">
        <ele>27.53</ele>
        <time>2016-07-08T13:05:10Z</time>
      </trkpt>
      <trkpt lat="46.69707" lon="-2.36445">
        <ele>27.05</ele>
        <time>2016-07-08T13:05:40Z</time>
      </trkpt>
      <trkpt lat="46.69675" lon="-2.36417">
        <ele>27.53</ele>
        <time>2016-07-08T13:06:10Z</time>
      </trkpt>
      <trkpt lat="46.69642" lon="-2.364">
        <ele>28.02</ele>
        <time>2016-07-08T13:06:40Z</time>
      </trkpt>
      <trkpt lat="46.69617" lon="-2.36401">
        <ele>29.46</ele>
        <time>2016-07-08T13:07:10Z</time>
      </trkpt>
      <trkpt lat="46.69596" lon="-2.36422">
        <ele>30.42</ele>
        <time>2016-07-08T13:07:40Z</time>
      </trkpt>
      <trkpt lat="46.69577" lon="-2.36442">
        <ele>34.26</ele>
        <time>2016-07-08T13:08:10Z</time>
      </trkpt>
      <trkpt lat="46.69573" lon="-2.36449">
        <ele>38.59</ele>
        <time>2016-07-08T13:08:40Z</time>
      </trkpt>
      <trkpt lat="46.69569" lon="-2.36443">
        <ele>35.23</ele>
        <time>2016-07-08T13:09:10Z</time>
      </trkpt>
      <trkpt lat="46.69563" lon="-2.36439">
        <ele>33.3</ele>
        <time>2016-07-08T13:09:40Z</time>
      </trkpt>
      <trkpt lat="46.69556" lon="-2.36446">
        <ele>30.9</ele>
        <time>2016-07-08T13:10:10Z</time>
      </trkpt>
      <trkpt lat="46.69553" lon="-2.36437">
        <ele>29.94</ele>
        <time>2016-07-08T13:10:40Z</time>
      </trkpt>
      <trkpt lat="46.69553" lon="-2.36398">
        <ele>28.5</ele>
        <time>2016-07-08T13:11:10Z</time>
      </trkpt>
      <trkpt lat="46.69553" lon="-2.36385">
        <ele>28.98</ele>
        <time>2016-07-08T13:11:40Z</time>
      </trkpt>
      <trkpt lat="46.6957" lon="-2.36337">
        <ele>26.57</ele>
        <time>2016-07-08T13:12:10Z</time>
      </trkpt>
      <trkpt lat="46.69561" lon="-2.36296">
        <ele>27.05</ele>
        <time>2016-07-08T13:12:40Z</time>
      </trkpt>
      <trkpt lat="46.69551" lon="-2.36244">
        <ele>25.13</ele>
        <time>2016-07-08T13:13:10Z</time>
      </trkpt>
      <trkpt lat="46.6954" lon="-2.36194">
        <ele>24.65</ele>
        <time>2016-07-08T13:13:40Z</time>
      </trkpt>
      <trkpt lat="46.69525" lon="-2.36147">
        <ele>25.61</ele>
        <time>2016-07-08T13:14:10Z</time>
      </trkpt>
      <trkpt lat="46.6952" lon="-2.36105">
        <ele>25.13</ele>
        <time>2016-07-08T13:14:40Z</time>
      </trkpt>
      <trkpt lat="46.69542" lon="-2.36099">
        <ele>23.21</ele>
        <time>2016-07-08T13:15:10Z</time>
      </trkpt>
      <trkpt lat="46.69575" lon="-2.36103">
        <ele>25.61</ele>
        <time>2016-07-08T13:15:40Z</time>
      </trkpt>
      <trkpt lat="46.69605" lon="-2.36096">
        <ele>27.53</ele>
        <time>2016-07-08T13:16:10Z</time>
      </trkpt>
      <trkpt lat="46.69627" lon="-2.36058">
        <ele>27.05</ele>
        <time>2016-07-08T13:16:40Z</time>
      </trkpt>
      <trkpt lat="46.69618" lon="-2.36009">
        <ele>27.05</ele>
        <time>2016-07-08T13:17:10Z</time>
      </trkpt>
      <trkpt lat="46.69619" lon="-2.35968">
        <ele>27.53</ele>
        <time>2016-07-08T13:17:40Z</time>
      </trkpt>
      <trkpt lat="46.69616" lon="-2.3592">
        <ele>26.09</ele>
        <time>2016-07-08T13:18:10Z</time>
      </trkpt>
      <trkpt lat="46.69618" lon="-2.3587">
        <ele>26.57</ele>
        <time>2016-07-08T13:18:40Z</time>
      </trkpt>
      <trkpt lat="46.69633" lon="-2.35827">
        <ele>27.05</ele>
        <time>2016-07-08T13:19:10Z</time>
      </trkpt>
      <trkpt lat="46.69652" lon="-2.35785">
        <ele>27.53</ele>
        <time>2016-07-08T13:19:40Z</time>
      </trkpt>
      <trkpt lat="46.69679" lon="-2.35754">
        <ele>28.98</ele>
        <time>2016-07-08T13:20:10Z</time>
      </trkpt>
      <trkpt lat="46.69706" lon="-2.35732">
        <ele>29.94</ele>
        <time>2016-07-08T13:20:40Z</time>
      </trkpt>
      <trkpt lat="46.69729" lon="-2.35699">
        <ele>29.94</ele>
        <time>2016-07-08T13:21:10Z</time>
      </trkpt>
      <trkpt lat="46.69731" lon="-2.35678">
        <ele>29.46</ele>
        <time>2016-07-08T13:21:40Z</time>
      </trkpt>
      <trkpt lat="46.69709" lon="-2.35639">
        <ele>29.94</ele>
        <time>2016-07-08T13:22:10Z</time>
      </trkpt>
      <trkpt lat="46.69691" lon="-2.35599">
        <ele>30.42</ele>
        <time>2016-07-08T13:22:40Z</time>
      </trkpt>
      <trkpt lat="46.69685" lon="-2.35591">
        <ele>31.38</ele>
        <time>2016-07-08T13:23:10Z</time>
      </trkpt>
      <trkpt lat="46.69683" lon="-2.35584">
        <ele>30.9</ele>
        <time>2016-07-08T13:23:40Z</time>
      </trkpt>
      <trkpt lat="46.69668" lon="-2.35545">
        <ele>30.42</ele>
        <time>2016-07-08T13:24:10Z</time>
      </trkpt>
      <trkpt lat="46.69651" lon="-2.35499">
        <ele>30.9</ele>
        <time>2016-07-08T13:24:40Z</time>
      </trkpt>
      <trkpt lat="46.69624" lon="-2.3547">
        <ele>30.9</ele>
        <time>2016-07-08T13:25:10Z</time>
      </trkpt>
      <trkpt lat="46.69593" lon="-2.35444">
        <ele>31.38</ele>
        <time>2016-07-08T13:25:40Z</time>
      </trkpt>
      <trkpt lat="46.69563" lon="-2.35415">
        <ele>29.94</ele>
        <time>2016-07-08T13:26:10Z</time>
      </trkpt>
      <trkpt lat="46.69539" lon="-2.35376">
        <ele>29.46</ele>
        <time>2016-07-08T13:26:40Z</time>
      </trkpt>
      <trkpt lat="46.69515" lon="-2.35341">
        <ele>28.98</ele>
        <time>2016-07-08T13:27:10Z</time>
      </trkpt>
      <trkpt lat="46.69486" lon="-2.35315">
        <ele>28.98</ele>
        <time>2016-07-08T13:27:40Z</time>
      </trkpt>
      <trkpt lat="46.69457" lon="-2.35288">
        <ele>29.94</ele>
        <time>2016-07-08T13:28:10Z</time>
      </trkpt>
      <trkpt lat="46.69425" lon="-2.35264">
        <ele>29.94</ele>
        <time>2016-07-08T13:28:40Z</time>
      </trkpt>
      <trkpt lat="46.69392" lon="-2.35237">
        <ele>29.94</ele>
        <time>2016-07-08T13:29:10Z</time>
      </trkpt>
      <trkpt lat="46.69362" lon="-2.35212">
        <ele>29.94</ele>
        <time>2016-07-08T13:29:40Z</time>
      </trkpt>
      <trkpt lat="46.69339" lon="-2.35169">
        <ele>29.94</ele>
        <time>2016-07-08T13:30:10Z</time>
      </trkpt>
      <trkpt lat="46.69323" lon="-2.35119">
        <ele>29.46</ele>
        <time>2016-07-08T13:30:40Z</time>
      </trkpt>
      <trkpt lat="46.69308" lon="-2.35071">
        <ele>28.5</ele>
        <time>2016-07-08T13:31:10Z</time>
      </trkpt>
      <trkpt lat="46.69294" lon="-2.3502">
        <ele>27.05</ele>
        <time>2016-07-08T13:31:40Z</time>
      </trkpt>
      <trkpt lat="46.69278" lon="-2.34973">
        <ele>26.57</ele>
        <time>2016-07-08T13:32:10Z</time>
      </trkpt>
      <trkpt lat="46.69264" lon="-2.34924">
        <ele>24.65</ele>
        <time>2016-07-08T13:32:40Z</time>
      </trkpt>
      <trkpt lat="46.69264" lon="-2.34871">
        <ele>25.13</ele>
        <time>2016-07-08T13:33:10Z</time>
      </trkpt>
      <trkpt lat="46.69271" lon="-2.34837">
        <ele>24.65</ele>
        <time>2016-07-08T13:33:40Z</time>
      </trkpt>
      <trkpt lat="46.69284" lon="-2.34832">
        <ele>23.69</ele>
        <time>2016-07-08T13:34:10Z</time>
      </trkpt>
      <trkpt lat="46.69297" lon="-2.3484">
        <ele>24.17</ele>
        <time>2016-07-08T13:34:40Z</time>
      </trkpt>
      <trkpt lat="46.69325" lon="-2.34817">
        <ele>24.65</ele>
        <time>2016-07-08T13:35:10Z</time>
      </trkpt>
      <trkpt lat="46.6935" lon="-2.34792">
        <ele>26.09</ele>
        <time>2016-07-08T13:35:40Z</time>
      </trkpt>
      <trkpt lat="46.69386" lon="-2.34794">
        <ele>24.17</ele>
        <time>2016-07-08T13:36:10Z</time>
      </trkpt>
      <trkpt lat="46.69412" lon="-2.34764">
        <ele>22.73</ele>
        <time>2016-07-08T13:36:40Z</time>
      </trkpt>
      <trkpt lat="46.6943" lon="-2.34726">
        <ele>24.65</ele>
        <time>2016-07-08T13:37:10Z</time>
      </trkpt>
      <trkpt lat="46.69461" lon="-2.34711">
        <ele>23.69</ele>
        <time>2016-07-08T13:37:40Z</time>
      </trkpt>
      <trkpt lat="46.69466" lon="-2.34704">
        <ele>23.21</ele>
        <time>2016-07-08T13:38:10Z</time>
      </trkpt>
      <trkpt lat="46.69466" lon="-2.34708">
        <ele>23.69</ele>
        <time>2016-07-08T13:38:40Z</time>
      </trkpt>
      <trkpt lat="46.69469" lon="-2.34709">
        <ele>23.21</ele>
        <time>2016-07-08T13:39:10Z</time>
      </trkpt>
      <trkpt lat="46.69488" lon="-2.34698">
        <ele>22.25</ele>
        <time>2016-07-08T13:39:40Z</time>
      </trkpt>
      <trkpt lat="46.69516" lon="-2.34701">
        <ele>21.29</ele>
        <time>2016-07-08T13:40:10Z</time>
      </trkpt>
      <trkpt lat="46.69545" lon="-2.34687">
        <ele>18.4</ele>
        <time>2016-07-08T13:40:40Z</time>
      </trkpt>
      <trkpt lat="46.69552" lon="-2.3466">
        <ele>15.04</ele>
        <time>2016-07-08T13:41:10Z</time>
      </trkpt>
      <trkpt lat="46.6956" lon="-2.34622">
        <ele>11.19</ele>
        <time>2016-07-08T13:41:40Z</time>
      </trkpt>
      <trkpt lat="46.69567" lon="-2.34585">
        <ele>9.27</ele>
        <time>2016-07-08T13:42:10Z</time>
      </trkpt>
      <trkpt lat="46.69544" lon="-2.34575">
        <ele>7.35</ele>
        <time>2016-07-08T13:42:40Z</time>
      </trkpt>
      <trkpt lat="46.69525" lon="-2.34581">
        <ele>7.83</ele>
        <time>2016-07-08T13:43:10Z</time>
      </trkpt>
      <trkpt lat="46.69526" lon="-2.34579">
        <ele>6.87</ele>
        <time>2016-07-08T13:43:40Z</time>
      </trkpt>
      <trkpt lat="46.69526" lon="-2.34579">
        <ele>7.35</ele>
        <time>2016-07-08T13:44:10Z</time>
      </trkpt>
      <trkpt lat="46.69526" lon="-2.34581">
        <ele>7.35</ele>
        <time>2016-07-08T13:44:40Z</time>
      </trkpt>
      <trkpt lat="46.69525" lon="-2.34583">
        <ele>7.35</ele>
        <time>2016-07-08T13:45:10Z</time>
      </trkpt>
      <trkpt lat="46.69526" lon="-2.34581">
        <ele>7.35</ele>
        <time>2016-07-08T13:45:40Z</time>
      </trkpt>
      <trkpt lat="46.69526" lon="-2.34582">
        <ele>7.83</ele>
        <time>2016-07-08T13:46:10Z</time>
      </trkpt>
      <trkpt lat="46.69527" lon="-2.34581">
        <ele>7.35</ele>
        <time>2016-07-08T13:46:40Z</time>
      </trkpt>
      <trkpt lat="46.69524" lon="-2.34576">
        <ele>6.87</ele>
        <time>2016-07-08T13:47:10Z</time>
      </trkpt>
      <trkpt lat="46.69525" lon="-2.34577">
        <ele>6.87</ele>
        <time>2016-07-08T13:47:40Z</time>
      </trkpt>
      <trkpt lat="46.69526" lon="-2.34578">
        <ele>6.87</ele>
        <time>2016-07-08T13:48:10Z</time>
      </trkpt>
      <trkpt lat="46.69525" lon="-2.34578">
        <ele>6.87</ele>
        <time>2016-07-08T13:48:40Z</time>
      </trkpt>
      <trkpt lat="46.69525" lon="-2.34576">
        <ele>6.87</ele>
        <time>2016-07-08T13:49:10Z</time>
      </trkpt>
      <trkpt lat="46.69526" lon="-2.34579">
        <ele>6.87</ele>
        <time>2016-07-08T13:49:40Z</time>
      </trkpt>
      <trkpt lat="46.69525" lon="-2.34578">
        <ele>7.35</ele>
        <time>2016-07-08T13:50:10Z</time>
      </trkpt>
      <trkpt lat="46.69525" lon="-2.34577">
        <ele>6.87</ele>
        <time>2016-07-08T13:50:40Z</time>
      </trkpt>
      <trkpt lat="46.69524" lon="-2.34576">
        <ele>6.87</ele>
        <time>2016-07-08T13:51:10Z</time>
      </trkpt>
      <trkpt lat="46.69525" lon="-2.34577">
        <ele>7.35</ele>
        <time>2016-07-08T13:51:40Z</time>
      </trkpt>
      <trkpt lat="46.69526" lon="-2.34578">
        <ele>6.87</ele>
        <time>2016-07-08T13:52:10Z</time>
      </trkpt>
      <trkpt lat="46.69526" lon="-2.34573">
        <ele>7.35</ele>
        <time>2016-07-08T13:52:40Z</time>
      </trkpt>
      <trkpt lat="46.69527" lon="-2.34578">
        <ele>7.35</ele>
        <time>2016-07-08T13:53:10Z</time>
      </trkpt>
      <trkpt lat="46.69526" lon="-2.34574">
        <ele>6.87</ele>
        <time>2016-07-08T13:53:40Z</time>
      </trkpt>
      <trkpt lat="46.69525" lon="-2.34576">
        <ele>7.35</ele>
        <time>2016-07-08T13:54:10Z</time>
      </trkpt>
      <trkpt lat="46.69524" lon="-2.34574">
        <ele>7.35</ele>
        <time>2016-07-08T13:54:40Z</time>
      </trkpt>
      <trkpt lat="46.69523" lon="-2.34575">
        <ele>7.35</ele>
        <time>2016-07-08T13:55:10Z</time>
      </trkpt>
      <trkpt lat="46.69524" lon="-2.34574">
        <ele>7.35</ele>
        <time>2016-07-08T13:55:40Z</time>
      </trkpt>
      <trkpt lat="46.69524" lon="-2.34576">
        <ele>7.83</ele>
        <time>2016-07-08T13:56:10Z</time>
      </trkpt>
      <trkpt lat="46.69522" lon="-2.34575">
        <ele>7.83</ele>
        <time>2016-07-08T13:56:40Z</time>
      </trkpt>
      <trkpt lat="46.69522" lon="-2.34573">
        <ele>7.83</ele>
        <time>2016-07-08T13:57:10Z</time>
      </trkpt>
      <trkpt lat="46.69524" lon="-2.34575">
        <ele>8.31</ele>
        <time>2016-07-08T13:57:40Z</time>
      </trkpt>
      <trkpt lat="46.6954" lon="-2.34577">
        <ele>8.31</ele>
        <time>2016-07-08T13:58:10Z</time>
      </trkpt>
      <trkpt lat="46.69531" lon="-2.34551">
        <ele>8.31</ele>
        <time>2016-07-08T13:58:40Z</time>
      </trkpt>
      <trkpt lat="46.69514" lon="-2.34539">
        <ele>8.31</ele>
        <time>2016-07-08T13:59:10Z</time>
      </trkpt>
      <trkpt lat="46.69495" lon="-2.34534">
        <ele>8.31</ele>
        <time>2016-07-08T13:59:40Z</time>
      </trkpt>
      <trkpt lat="46.69484" lon="-2.3453">
        <ele>8.79</ele>
        <time>2016-07-08T14:00:10Z</time>
      </trkpt>
      <trkpt lat="46.69467" lon="-2.34503">
        <ele>12.15</ele>
        <time>2016-07-08T14:00:40Z</time>
      </trkpt>
      <trkpt lat="46.69444" lon="-2.3448">
        <ele>15.04</ele>
        <time>2016-07-08T14:01:10Z</time>
      </trkpt>
      <trkpt lat="46.69428" lon="-2.34444">
        <ele>17.44</ele>
        <time>2016-07-08T14:01:40Z</time>
      </trkpt>
      <trkpt lat="46.69421" lon="-2.34407">
        <ele>20.32</ele>
        <time>2016-07-08T14:02:10Z</time>
      </trkpt>
      <trkpt lat="46.6942" lon="-2.34393">
        <ele>21.29</ele>
        <time>2016-07-08T14:02:40Z</time>
      </trkpt>
      <trkpt lat="46.69412" lon="-2.34363">
        <ele>22.73</ele>
        <time>2016-07-08T14:03:10Z</time>
      </trkpt>
      <trkpt lat="46.69415" lon="-2.34365">
        <ele>24.17</ele>
        <time>2016-07-08T14:03:40Z</time>
      </trkpt>
      <trkpt lat="46.69406" lon="-2.3436">
        <ele>23.69</ele>
        <time>2016-07-08T14:04:10Z</time>
      </trkpt>
      <trkpt lat="46.6941" lon="-2.34355">
        <ele>22.73</ele>
        <time>2016-07-08T14:04:40Z</time>
      </trkpt>
      <trkpt lat="46.69408" lon="-2.34351">
        <ele>21.77</ele>
        <time>2016-07-08T14:05:10Z</time>
      </trkpt>
      <trkpt lat="46.69413" lon="-2.34355">
        <ele>24.17</ele>
        <time>2016-07-08T14:05:40Z</time>
      </trkpt>
      <trkpt lat="46.69428" lon="-2.34349">
        <ele>25.61</ele>
        <time>2016-07-08T14:06:10Z</time>
      </trkpt>
      <trkpt lat="46.69427" lon="-2.3435">
        <ele>25.61</ele>
        <time>2016-07-08T14:06:40Z</time>
      </trkpt>
      <trkpt lat="46.69431" lon="-2.34351">
        <ele>25.61</ele>
        <time>2016-07-08T14:07:10Z</time>
      </trkpt>
      <trkpt lat="46.69432" lon="-2.3435">
        <ele>26.09</ele>
        <time>2016-07-08T14:07:40Z</time>
      </trkpt>
      <trkpt lat="46.69441" lon="-2.34349">
        <ele>26.09</ele>
        <time>2016-07-08T14:08:10Z</time>
      </trkpt>
      <trkpt lat="46.69445" lon="-2.34345">
        <ele>27.05</ele>
        <time>2016-07-08T14:08:40Z</time>
      </trkpt>
      <trkpt lat="46.6947" lon="-2.34321">
        <ele>27.53</ele>
        <time>2016-07-08T14:09:10Z</time>
      </trkpt>
      <trkpt lat="46.69494" lon="-2.34293">
        <ele>25.13</ele>
        <time>2016-07-08T14:09:40Z</time>
      </trkpt>
      <trkpt lat="46.69521" lon="-2.34255">
        <ele>22.73</ele>
        <time>2016-07-08T14:10:10Z</time>
      </trkpt>
      <trkpt lat="46.69543" lon="-2.34217">
        <ele>24.17</ele>
        <time>2016-07-08T14:10:40Z</time>
      </trkpt>
      <trkpt lat="46.69571" lon="-2.34185">
        <ele>25.13</ele>
        <time>2016-07-08T14:11:10Z</time>
      </trkpt>
      <trkpt lat="46.69598" lon="-2.34152">
        <ele>27.05</ele>
        <time>2016-07-08T14:11:40Z</time>
      </trkpt>
      <trkpt lat="46.69603" lon="-2.34144">
        <ele>27.05</ele>
        <time>2016-07-08T14:12:10Z</time>
      </trkpt>
      <trkpt lat="46.69605" lon="-2.34143">
        <ele>27.05</ele>
        <time>2016-07-08T14:12:40Z</time>
      </trkpt>
      <trkpt lat="46.69609" lon="-2.34134">
        <ele>27.53</ele>
        <time>2016-07-08T14:13:10Z</time>
      </trkpt>
      <trkpt lat="46.69629" lon="-2.34126">
        <ele>28.02</ele>
        <time>2016-07-08T14:13:40Z</time>
      </trkpt>
      <trkpt lat="46.69664" lon="-2.34109">
        <ele>28.02</ele>
        <time>2016-07-08T14:14:10Z</time>
      </trkpt>
      <trkpt lat="46.69698" lon="-2.34094">
        <ele>28.02</ele>
        <time>2016-07-08T14:14:40Z</time>
      </trkpt>
      <trkpt lat="46.69731" lon="-2.34079">
        <ele>28.02</ele>
        <time>2016-07-08T14:15:10Z</time>
      </trkpt>
      <trkpt lat="46.69769" lon="-2.34064">
        <ele>28.02</ele>
        <time>2016-07-08T14:15:40Z</time>
      </trkpt>
      <trkpt lat="46.698" lon="-2.34044">
        <ele>28.5</ele>
        <time>2016-07-08T14:16:10Z</time>
      </trkpt>
      <trkpt lat="46.69835" lon="-2.34027">
        <ele>28.5</ele>
        <time>2016-07-08T14:16:40Z</time>
      </trkpt>
      <trkpt lat="46.69867" lon="-2.33998">
        <ele>28.98</ele>
        <time>2016-07-08T14:17:10Z</time>
      </trkpt>
      <trkpt lat="46.69896" lon="-2.33976">
        <ele>28.98</ele>
        <time>2016-07-08T14:17:40Z</time>
      </trkpt>
      <trkpt lat="46.69927" lon="-2.33965">
        <ele>28.98</ele>
        <time>2016-07-08T14:18:10Z</time>
      </trkpt>
      <trkpt lat="46.69958" lon="-2.33959">
        <ele>29.46</ele>
        <time>2016-07-08T14:18:40Z</time>
      </trkpt>
      <trkpt lat="46.69995" lon="-2.33944">
        <ele>29.94</ele>
        <time>2016-07-08T14:19:10Z</time>
      </trkpt>
      <trkpt lat="46.70028" lon="-2.33921">
        <ele>28.98</ele>
        <time>2016-07-08T14:19:40Z</time>
      </trkpt>
      <trkpt lat="46.70062" lon="-2.33901">
        <ele>29.94</ele>
        <time>2016-07-08T14:20:10Z</time>
      </trkpt>
      <trkpt lat="46.70093" lon="-2.33876">
        <ele>29.46</ele>
        <time>2016-07-08T14:20:40Z</time>
      </trkpt>
      <trkpt lat="46.70123" lon="-2.3385">
        <ele>29.46</ele>
        <time>2016-07-08T14:21:10Z</time>
      </trkpt>
      <trkpt lat="46.70156" lon="-2.33834">
        <ele>29.46</ele>
        <time>2016-07-08T14:21:40Z</time>
      </trkpt>
      <trkpt lat="46.70189" lon="-2.33822">
        <ele>30.42</ele>
        <time>2016-07-08T14:22:10Z</time>
      </trkpt>
      <trkpt lat="46.70209" lon="-2.33819">
        <ele>30.42</ele>
        <time>2016-07-08T14:22:40Z</time>
      </trkpt>
      <trkpt lat="46.7021" lon="-2.33823">
        <ele>29.94</ele>
        <time>2016-07-08T14:23:10Z</time>
      </trkpt>
      <trkpt lat="46.70223" lon="-2.33862">
        <ele>30.42</ele>
        <time>2016-07-08T14:23:40Z</time>
      </trkpt>
      <trkpt lat="46.70237" lon="-2.3391">
        <ele>30.42</ele>
        <time>2016-07-08T14:24:10Z</time>
      </trkpt>
      <trkpt lat="46.70252" lon="-2.33959">
        <ele>29.46</ele>
        <time>2016-07-08T14:24:40Z</time>
      </trkpt>
      <trkpt lat="46.70269" lon="-2.34003">
        <ele>29.94</ele>
        <time>2016-07-08T14:25:10Z</time>
      </trkpt>
      <trkpt lat="46.7029" lon="-2.34045">
        <ele>29.46</ele>
        <time>2016-07-08T14:25:40Z</time>
      </trkpt>
      <trkpt lat="46.70294" lon="-2.34079">
        <ele>29.46</ele>
        <time>2016-07-08T14:26:10Z</time>
      </trkpt>
      <trkpt lat="46.70307" lon="-2.34114">
        <ele>29.94</ele>
        <time>2016-07-08T14:26:40Z</time>
      </trkpt>
      <trkpt lat="46.70329" lon="-2.34155">
        <ele>29.46</ele>
        <time>2016-07-08T14:27:10Z</time>
      </trkpt>
      <trkpt lat="46.7036" lon="-2.34184">
        <ele>29.94</ele>
        <time>2016-07-08T14:27:40Z</time>
      </trkpt>
      <trkpt lat="46.7039" lon="-2.34205">
        <ele>29.46</ele>
        <time>2016-07-08T14:28:10Z</time>
      </trkpt>
      <trkpt lat="46.70416" lon="-2.34224">
        <ele>29.46</ele>
        <time>2016-07-08T14:28:40Z</time>
      </trkpt>
      <trkpt lat="46.70415" lon="-2.34226">
        <ele>29.46</ele>
        <time>2016-07-08T14:29:10Z</time>
      </trkpt>
      <trkpt lat="46.70423" lon="-2.34247">
        <ele>28.5</ele>
        <time>2016-07-08T14:29:40Z</time>
      </trkpt>
      <trkpt lat="46.7045" lon="-2.34284">
        <ele>29.46</ele>
        <time>2016-07-08T14:30:10Z</time>
      </trkpt>
      <trkpt lat="46.70476" lon="-2.34325">
        <ele>28.02</ele>
        <time>2016-07-08T14:30:40Z</time>
      </trkpt>
      <trkpt lat="46.70504" lon="-2.34357">
        <ele>27.53</ele>
        <time>2016-07-08T14:31:10Z</time>
      </trkpt>
      <trkpt lat="46.70532" lon="-2.34392">
        <ele>28.98</ele>
        <time>2016-07-08T14:31:40Z</time>
      </trkpt>
      <trkpt lat="46.70559" lon="-2.34427">
        <ele>28.98</ele>
        <time>2016-07-08T14:32:10Z</time>
      </trkpt>
      <trkpt lat="46.70582" lon="-2.34464">
        <ele>29.46</ele>
        <time>2016-07-08T14:32:40Z</time>
      </trkpt>
      <trkpt lat="46.70601" lon="-2.34498">
        <ele>28.98</ele>
        <time>2016-07-08T14:33:10Z</time>
      </trkpt>
      <trkpt lat="46.70624" lon="-2.34536">
        <ele>28.98</ele>
        <time>2016-07-08T14:33:40Z</time>
      </trkpt>
      <trkpt lat="46.70646" lon="-2.34573">
        <ele>28.98</ele>
        <time>2016-07-08T14:34:10Z</time>
      </trkpt>
      <trkpt lat="46.70672" lon="-2.34608">
        <ele>29.94</ele>
        <time>2016-07-08T14:34:40Z</time>
      </trkpt>
      <trkpt lat="46.70676" lon="-2.34615">
        <ele>29.46</ele>
        <time>2016-07-08T14:35:10Z</time>
      </trkpt>
      <trkpt lat="46.70676" lon="-2.34643">
        <ele>29.46</ele>
        <time>2016-07-08T14:35:40Z</time>
      </trkpt>
      <trkpt lat="46.70693" lon="-2.34688">
        <ele>29.94</ele>
        <time>2016-07-08T14:36:10Z</time>
      </trkpt>
      <trkpt lat="46.70713" lon="-2.3472">
        <ele>29.94</ele>
        <time>2016-07-08T14:36:40Z</time>
      </trkpt>
      <trkpt lat="46.70739" lon="-2.34753">
        <ele>28.5</ele>
        <time>2016-07-08T14:37:10Z</time>
      </trkpt>
      <trkpt lat="46.70759" lon="-2.34783">
        <ele>30.9</ele>
        <time>2016-07-08T14:37:40Z</time>
      </trkpt>
      <trkpt lat="46.70786" lon="-2.34814">
        <ele>28.5</ele>
        <time>2016-07-08T14:38:10Z</time>
      </trkpt>
      <trkpt lat="46.70808" lon="-2.3484">
        <ele>28.5</ele>
        <time>2016-07-08T14:38:40Z</time>
      </trkpt>
      <trkpt lat="46.7083" lon="-2.34861">
        <ele>28.98</ele>
        <time>2016-07-08T14:39:10Z</time>
      </trkpt>
      <trkpt lat="46.70862" lon="-2.34894">
        <ele>28.5</ele>
        <time>2016-07-08T14:39:40Z</time>
      </trkpt>
      <trkpt lat="46.7089" lon="-2.34934">
        <ele>29.46</ele>
        <time>2016-07-08T14:40:10Z</time>
      </trkpt>
      <trkpt lat="46.70911" lon="-2.34977">
        <ele>28.02</ele>
        <time>2016-07-08T14:40:40Z</time>
      </trkpt>
      <trkpt lat="46.70931" lon="-2.35021">
        <ele>28.5</ele>
        <time>2016-07-08T14:41:10Z</time>
      </trkpt>
      <trkpt lat="46.70951" lon="-2.35065">
        <ele>29.46</ele>
        <time>2016-07-08T14:41:40Z</time>
      </trkpt>
      <trkpt lat="46.70969" lon="-2.35102">
        <ele>28.98</ele>
        <time>2016-07-08T14:42:10Z</time>
      </trkpt>
      <trkpt lat="46.70981" lon="-2.35093">
        <ele>28.98</ele>
        <time>2016-07-08T14:42:40Z</time>
      </trkpt>
      <trkpt lat="46.70967" lon="-2.35099">
        <ele>28.5</ele>
        <time>2016-07-08T14:43:10Z</time>
      </trkpt>
      <trkpt lat="46.70965" lon="-2.35102">
        <ele>28.5</ele>
        <time>2016-07-08T14:43:40Z</time>
      </trkpt>
      <trkpt lat="46.70964" lon="-2.35098">
        <ele>28.5</ele>
        <time>2016-07-08T14:44:10Z</time>
      </trkpt>
      <trkpt lat="46.70965" lon="-2.35103">
        <ele>28.5</ele>
        <time>2016-07-08T14:44:40Z</time>
      </trkpt>
      <trkpt lat="46.70968" lon="-2.35114">
        <ele>28.5</ele>
        <time>2016-07-08T14:45:10Z</time>
      </trkpt>
      <trkpt lat="46.70972" lon="-2.35131">
        <ele>28.5</ele>
        <time>2016-07-08T14:45:40Z</time>
      </trkpt>
      <trkpt lat="46.70986" lon="-2.35166">
        <ele>29.94</ele>
        <time>2016-07-08T14:46:10Z</time>
      </trkpt>
      <trkpt lat="46.71016" lon="-2.35153">
        <ele>28.02</ele>
        <time>2016-07-08T14:46:40Z</time>
      </trkpt>
      <trkpt lat="46.71045" lon="-2.35133">
        <ele>28.02</ele>
        <time>2016-07-08T14:47:10Z</time>
      </trkpt>
      <trkpt lat="46.71078" lon="-2.35108">
        <ele>27.53</ele>
        <time>2016-07-08T14:47:40Z</time>
      </trkpt>
      <trkpt lat="46.7111" lon="-2.35082">
        <ele>27.05</ele>
        <time>2016-07-08T14:48:10Z</time>
      </trkpt>
      <trkpt lat="46.7114" lon="-2.35067">
        <ele>27.05</ele>
        <time>2016-07-08T14:48:40Z</time>
      </trkpt>
      <trkpt lat="46.71161" lon="-2.35066">
        <ele>27.05</ele>
        <time>2016-07-08T14:49:10Z</time>
      </trkpt>
      <trkpt lat="46.71166" lon="-2.35081">
        <ele>26.57</ele>
        <time>2016-07-08T14:49:40Z</time>
      </trkpt>
      <trkpt lat="46.7119" lon="-2.35102">
        <ele>28.02</ele>
        <time>2016-07-08T14:50:10Z</time>
      </trkpt>
      <trkpt lat="46.71226" lon="-2.35088">
        <ele>26.57</ele>
        <time>2016-07-08T14:50:40Z</time>
      </trkpt>
      <trkpt lat="46.71255" lon="-2.35074">
        <ele>26.09</ele>
        <time>2016-07-08T14:51:10Z</time>
      </trkpt>
      <trkpt lat="46.71278" lon="-2.35034">
        <ele>27.53</ele>
        <time>2016-07-08T14:51:40Z</time>
      </trkpt>
      <trkpt lat="46.71292" lon="-2.34989">
        <ele>26.09</ele>
        <time>2016-07-08T14:52:10Z</time>
      </trkpt>
      <trkpt lat="46.71317" lon="-2.34953">
        <ele>25.61</ele>
        <time>2016-07-08T14:52:40Z</time>
      </trkpt>
      <trkpt lat="46.71347" lon="-2.34929">
        <ele>24.65</ele>
        <time>2016-07-08T14:53:10Z</time>
      </trkpt>
      <trkpt lat="46.71381" lon="-2.34918">
        <ele>24.17</ele>
        <time>2016-07-08T14:53:40Z</time>
      </trkpt>
      <trkpt lat="46.71413" lon="-2.34903">
        <ele>22.73</ele>
        <time>2016-07-08T14:54:10Z</time>
      </trkpt>
      <trkpt lat="46.71446" lon="-2.34884">
        <ele>21.29</ele>
        <time>2016-07-08T14:54:40Z</time>
      </trkpt>
      <trkpt lat="46.71483" lon="-2.34868">
        <ele>20.32</ele>
        <time>2016-07-08T14:55:10Z</time>
      </trkpt>
      <trkpt lat="46.71516" lon="-2.3485">
        <ele>19.36</ele>
        <time>2016-07-08T14:55:40Z</time>
      </trkpt>
      <trkpt lat="46.71548" lon="-2.34833">
        <ele>18.4</ele>
        <time>2016-07-08T14:56:10Z</time>
      </trkpt>
      <trkpt lat="46.71574" lon="-2.34808">
        <ele>17.44</ele>
        <time>2016-07-08T14:56:40Z</time>
      </trkpt>
      <trkpt lat="46.71606" lon="-2.3481">
        <ele>17.92</ele>
        <time>2016-07-08T14:57:10Z</time>
      </trkpt>
      <trkpt lat="46.71641" lon="-2.34816">
        <ele>16.48</ele>
        <time>2016-07-08T14:57:40Z</time>
      </trkpt>
      <trkpt lat="46.71678" lon="-2.34817">
        <ele>14.56</ele>
        <time>2016-07-08T14:58:10Z</time>
      </trkpt>
      <trkpt lat="46.71713" lon="-2.34807">
        <ele>15.04</ele>
        <time>2016-07-08T14:58:40Z</time>
      </trkpt>
      <trkpt lat="46.71743" lon="-2.34795">
        <ele>13.12</ele>
        <time>2016-07-08T14:59:10Z</time>
      </trkpt>
      <trkpt lat="46.71777" lon="-2.3477">
        <ele>13.12</ele>
        <time>2016-07-08T14:59:40Z</time>
      </trkpt>
      <trkpt lat="46.71808" lon="-2.34747">
        <ele>12.15</ele>
        <time>2016-07-08T15:00:10Z</time>
      </trkpt>
      <trkpt lat="46.71837" lon="-2.34723">
        <ele>11.19</ele>
        <time>2016-07-08T15:00:40Z</time>
      </trkpt>
      <trkpt lat="46.71868" lon="-2.34702">
        <ele>12.15</ele>
        <time>2016-07-08T15:01:10Z</time>
      </trkpt>
      <trkpt lat="46.71894" lon="-2.34676">
        <ele>13.6</ele>
        <time>2016-07-08T15:01:40Z</time>
      </trkpt>
      <trkpt lat="46.71925" lon="-2.34653">
        <ele>13.6</ele>
        <time>2016-07-08T15:02:10Z</time>
      </trkpt>
      <trkpt lat="46.71959" lon="-2.34634">
        <ele>12.15</ele>
        <time>2016-07-08T15:02:40Z</time>
      </trkpt>
      <trkpt lat="46.7199" lon="-2.34615">
        <ele>12.63</ele>
        <time>2016-07-08T15:03:10Z</time>
      </trkpt>
      <trkpt lat="46.72026" lon="-2.34609">
        <ele>12.15</ele>
        <time>2016-07-08T15:03:40Z</time>
      </trkpt>
      <trkpt lat="46.72061" lon="-2.346">
        <ele>11.19</ele>
        <time>2016-07-08T15:04:10Z</time>
      </trkpt>
      <trkpt lat="46.72092" lon="-2.34579">
        <ele>10.71</ele>
        <time>2016-07-08T15:04:40Z</time>
      </trkpt>
      <trkpt lat="46.7213" lon="-2.34562">
        <ele>11.67</ele>
        <time>2016-07-08T15:05:10Z</time>
      </trkpt>
      <trkpt lat="46.72161" lon="-2.34542">
        <ele>12.15</ele>
        <time>2016-07-08T15:05:40Z</time>
      </trkpt>
      <trkpt lat="46.72188" lon="-2.34529">
        <ele>12.15</ele>
        <time>2016-07-08T15:06:10Z</time>
      </trkpt>
      <trkpt lat="46.72222" lon="-2.34515">
        <ele>10.71</ele>
        <time>2016-07-08T15:06:40Z</time>
      </trkpt>
      <trkpt lat="46.72253" lon="-2.34504">
        <ele>9.75</ele>
        <time>2016-07-08T15:07:10Z</time>
      </trkpt>
      <trkpt lat="46.72271" lon="-2.34479">
        <ele>7.83</ele>
        <time>2016-07-08T15:07:40Z</time>
      </trkpt>
      <trkpt lat="46.72253" lon="-2.34438">
        <ele>8.31</ele>
        <time>2016-07-08T15:08:10Z</time>
      </trkpt>
      <trkpt lat="46.72236" lon="-2.34402">
        <ele>8.31</ele>
        <time>2016-07-08T15:08:40Z</time>
      </trkpt>
      <trkpt lat="46.72207" lon="-2.34371">
        <ele>7.83</ele>
        <time>2016-07-08T15:09:10Z</time>
      </trkpt>
      <trkpt lat="46.72213" lon="-2.34322">
        <ele>8.31</ele>
        <time>2016-07-08T15:09:40Z</time>
      </trkpt>
      <trkpt lat="46.72215" lon="-2.34323">
        <ele>6.87</ele>
        <time>2016-07-08T15:10:10Z</time>
      </trkpt>
    </trkseg>
  </trk>
</gpx>